<?xml version="1.0" encoding="UTF-8" standalone="no" ?>
<gpx xmlns="http://www.topografix.com/GPX/1/1" xmlns:xsi="http://www.w3.org/2001/XMLSchema-instance" xsi:schemaLocation="http://www.topografix.com/GPX/1/1 http://www.topografix.com/GPX/1/1/gpx.xsd" version="1.1" creator="VisuGPX - https://www.visugpx.com">
  <metadata>
    <name>9283744-Montaiguet</name>
  </metadata>
  <trk>
    <name><![CDATA[9283744-Montaiguet]]></name>
    <trkseg>
      <trkpt lat="43.51023" lon="5.44351">
        <ele>135</ele>
        <time>2020-12-05T17:49:01Z</time>
      </trkpt>
      <trkpt lat="43.5102" lon="5.44341">
        <ele>135</ele>
        <time>2020-12-05T17:49:03Z</time>
      </trkpt>
      <trkpt lat="43.51017" lon="5.44341">
        <ele>135</ele>
        <time>2020-12-05T17:49:04Z</time>
      </trkpt>
      <trkpt lat="43.51014" lon="5.44337">
        <ele>135</ele>
        <time>2020-12-05T17:49:05Z</time>
      </trkpt>
      <trkpt lat="43.51004" lon="5.44347">
        <ele>135</ele>
        <time>2020-12-05T17:49:07Z</time>
      </trkpt>
      <trkpt lat="43.50995" lon="5.4434">
        <ele>135</ele>
        <time>2020-12-05T17:49:10Z</time>
      </trkpt>
      <trkpt lat="43.50997" lon="5.44349">
        <ele>135</ele>
        <time>2020-12-05T17:49:11Z</time>
      </trkpt>
      <trkpt lat="43.51018" lon="5.44347">
        <ele>135</ele>
        <time>2020-12-05T17:49:16Z</time>
      </trkpt>
      <trkpt lat="43.5102" lon="5.44349">
        <ele>135</ele>
        <time>2020-12-05T17:49:17Z</time>
      </trkpt>
      <trkpt lat="43.5102" lon="5.44347">
        <ele>135</ele>
        <time>2020-12-05T17:49:17Z</time>
      </trkpt>
      <trkpt lat="43.5102" lon="5.44351">
        <ele>135</ele>
        <time>2020-12-05T17:49:18Z</time>
      </trkpt>
      <trkpt lat="43.51021" lon="5.44347">
        <ele>135</ele>
        <time>2020-12-05T17:49:19Z</time>
      </trkpt>
      <trkpt lat="43.51019" lon="5.44351">
        <ele>135</ele>
        <time>2020-12-05T17:49:19Z</time>
      </trkpt>
      <trkpt lat="43.51017" lon="5.44348">
        <ele>135</ele>
        <time>2020-12-05T17:49:20Z</time>
      </trkpt>
      <trkpt lat="43.51018" lon="5.44338">
        <ele>135</ele>
        <time>2020-12-05T17:49:22Z</time>
      </trkpt>
      <trkpt lat="43.51021" lon="5.44342">
        <ele>135</ele>
        <time>2020-12-05T17:49:23Z</time>
      </trkpt>
      <trkpt lat="43.51018" lon="5.44353">
        <ele>135</ele>
        <time>2020-12-05T17:49:25Z</time>
      </trkpt>
      <trkpt lat="43.51022" lon="5.44356">
        <ele>136</ele>
        <time>2020-12-05T17:49:26Z</time>
      </trkpt>
      <trkpt lat="43.5102" lon="5.44338">
        <ele>135</ele>
        <time>2020-12-05T17:49:29Z</time>
      </trkpt>
      <trkpt lat="43.51015" lon="5.44332">
        <ele>135</ele>
        <time>2020-12-05T17:49:31Z</time>
      </trkpt>
      <trkpt lat="43.51008" lon="5.44342">
        <ele>135</ele>
        <time>2020-12-05T17:49:33Z</time>
      </trkpt>
      <trkpt lat="43.51009" lon="5.44348">
        <ele>135</ele>
        <time>2020-12-05T17:49:34Z</time>
      </trkpt>
      <trkpt lat="43.51016" lon="5.44348">
        <ele>135</ele>
        <time>2020-12-05T17:49:36Z</time>
      </trkpt>
      <trkpt lat="43.51016" lon="5.44345">
        <ele>135</ele>
        <time>2020-12-05T17:49:36Z</time>
      </trkpt>
      <trkpt lat="43.51018" lon="5.44349">
        <ele>135</ele>
        <time>2020-12-05T17:49:37Z</time>
      </trkpt>
      <trkpt lat="43.51022" lon="5.4435">
        <ele>135</ele>
        <time>2020-12-05T17:49:38Z</time>
      </trkpt>
      <trkpt lat="43.51021" lon="5.44341">
        <ele>135</ele>
        <time>2020-12-05T17:49:39Z</time>
      </trkpt>
      <trkpt lat="43.51015" lon="5.4434">
        <ele>135</ele>
        <time>2020-12-05T17:49:41Z</time>
      </trkpt>
      <trkpt lat="43.51006" lon="5.44343">
        <ele>135</ele>
        <time>2020-12-05T17:49:43Z</time>
      </trkpt>
      <trkpt lat="43.50997" lon="5.44339">
        <ele>135</ele>
        <time>2020-12-05T17:49:45Z</time>
      </trkpt>
      <trkpt lat="43.50988" lon="5.44328">
        <ele>135</ele>
        <time>2020-12-05T17:49:48Z</time>
      </trkpt>
      <trkpt lat="43.50958" lon="5.44324">
        <ele>135</ele>
        <time>2020-12-05T17:49:55Z</time>
      </trkpt>
      <trkpt lat="43.50928" lon="5.44324">
        <ele>135</ele>
        <time>2020-12-05T17:50:02Z</time>
      </trkpt>
      <trkpt lat="43.50907" lon="5.44315">
        <ele>136</ele>
        <time>2020-12-05T17:50:07Z</time>
      </trkpt>
      <trkpt lat="43.5087" lon="5.44275">
        <ele>138</ele>
        <time>2020-12-05T17:50:18Z</time>
      </trkpt>
      <trkpt lat="43.50848" lon="5.44255">
        <ele>138</ele>
        <time>2020-12-05T17:50:24Z</time>
      </trkpt>
      <trkpt lat="43.50829" lon="5.44253">
        <ele>139</ele>
        <time>2020-12-05T17:50:29Z</time>
      </trkpt>
      <trkpt lat="43.50812" lon="5.44257">
        <ele>140</ele>
        <time>2020-12-05T17:50:33Z</time>
      </trkpt>
      <trkpt lat="43.50766" lon="5.4427">
        <ele>143</ele>
        <time>2020-12-05T17:50:44Z</time>
      </trkpt>
      <trkpt lat="43.5075" lon="5.44277">
        <ele>144</ele>
        <time>2020-12-05T17:50:48Z</time>
      </trkpt>
      <trkpt lat="43.50733" lon="5.44288">
        <ele>144</ele>
        <time>2020-12-05T17:50:52Z</time>
      </trkpt>
      <trkpt lat="43.50684" lon="5.44341">
        <ele>146</ele>
        <time>2020-12-05T17:51:07Z</time>
      </trkpt>
      <trkpt lat="43.50564" lon="5.44424">
        <ele>152</ele>
        <time>2020-12-05T17:51:38Z</time>
      </trkpt>
      <trkpt lat="43.50507" lon="5.44456">
        <ele>155</ele>
        <time>2020-12-05T17:51:52Z</time>
      </trkpt>
      <trkpt lat="43.50473" lon="5.44484">
        <ele>157</ele>
        <time>2020-12-05T17:52:02Z</time>
      </trkpt>
      <trkpt lat="43.50447" lon="5.44511">
        <ele>158</ele>
        <time>2020-12-05T17:52:09Z</time>
      </trkpt>
      <trkpt lat="43.50435" lon="5.44518">
        <ele>158</ele>
        <time>2020-12-05T17:52:12Z</time>
      </trkpt>
      <trkpt lat="43.50382" lon="5.44526">
        <ele>161</ele>
        <time>2020-12-05T17:52:25Z</time>
      </trkpt>
      <trkpt lat="43.50338" lon="5.44528">
        <ele>163</ele>
        <time>2020-12-05T17:52:35Z</time>
      </trkpt>
      <trkpt lat="43.50322" lon="5.44533">
        <ele>165</ele>
        <time>2020-12-05T17:52:39Z</time>
      </trkpt>
      <trkpt lat="43.50307" lon="5.44524">
        <ele>165</ele>
        <time>2020-12-05T17:52:43Z</time>
      </trkpt>
      <trkpt lat="43.50258" lon="5.4444">
        <ele>170</ele>
        <time>2020-12-05T17:53:01Z</time>
      </trkpt>
      <trkpt lat="43.50223" lon="5.44408">
        <ele>174</ele>
        <time>2020-12-05T17:53:11Z</time>
      </trkpt>
      <trkpt lat="43.50181" lon="5.44377">
        <ele>181</ele>
        <time>2020-12-05T17:53:22Z</time>
      </trkpt>
      <trkpt lat="43.50125" lon="5.44344">
        <ele>188</ele>
        <time>2020-12-05T17:53:36Z</time>
      </trkpt>
      <trkpt lat="43.5006" lon="5.44312">
        <ele>194</ele>
        <time>2020-12-05T17:53:52Z</time>
      </trkpt>
      <trkpt lat="43.50025" lon="5.44303">
        <ele>195</ele>
        <time>2020-12-05T17:54:00Z</time>
      </trkpt>
      <trkpt lat="43.49999" lon="5.44309">
        <ele>195</ele>
        <time>2020-12-05T17:54:07Z</time>
      </trkpt>
      <trkpt lat="43.49994" lon="5.44315">
        <ele>195</ele>
        <time>2020-12-05T17:54:08Z</time>
      </trkpt>
      <trkpt lat="43.49996" lon="5.44328">
        <ele>194</ele>
        <time>2020-12-05T17:54:10Z</time>
      </trkpt>
      <trkpt lat="43.50018" lon="5.44347">
        <ele>194</ele>
        <time>2020-12-05T17:54:16Z</time>
      </trkpt>
      <trkpt lat="43.50037" lon="5.44374">
        <ele>194</ele>
        <time>2020-12-05T17:54:23Z</time>
      </trkpt>
      <trkpt lat="43.50046" lon="5.44407">
        <ele>194</ele>
        <time>2020-12-05T17:54:29Z</time>
      </trkpt>
      <trkpt lat="43.50059" lon="5.44436">
        <ele>195</ele>
        <time>2020-12-05T17:54:35Z</time>
      </trkpt>
      <trkpt lat="43.50058" lon="5.44468">
        <ele>197</ele>
        <time>2020-12-05T17:54:40Z</time>
      </trkpt>
      <trkpt lat="43.50054" lon="5.44494">
        <ele>199</ele>
        <time>2020-12-05T17:54:44Z</time>
      </trkpt>
      <trkpt lat="43.50042" lon="5.44511">
        <ele>199</ele>
        <time>2020-12-05T17:54:48Z</time>
      </trkpt>
      <trkpt lat="43.49988" lon="5.4455">
        <ele>200</ele>
        <time>2020-12-05T17:55:03Z</time>
      </trkpt>
      <trkpt lat="43.49977" lon="5.44569">
        <ele>201</ele>
        <time>2020-12-05T17:55:07Z</time>
      </trkpt>
      <trkpt lat="43.49973" lon="5.44572">
        <ele>201</ele>
        <time>2020-12-05T17:55:08Z</time>
      </trkpt>
      <trkpt lat="43.49963" lon="5.44593">
        <ele>203</ele>
        <time>2020-12-05T17:55:12Z</time>
      </trkpt>
      <trkpt lat="43.49952" lon="5.44609">
        <ele>204</ele>
        <time>2020-12-05T17:55:16Z</time>
      </trkpt>
      <trkpt lat="43.49929" lon="5.44663">
        <ele>208</ele>
        <time>2020-12-05T17:55:27Z</time>
      </trkpt>
      <trkpt lat="43.49926" lon="5.44681">
        <ele>209</ele>
        <time>2020-12-05T17:55:30Z</time>
      </trkpt>
      <trkpt lat="43.49917" lon="5.44703">
        <ele>211</ele>
        <time>2020-12-05T17:55:34Z</time>
      </trkpt>
      <trkpt lat="43.49917" lon="5.44713">
        <ele>212</ele>
        <time>2020-12-05T17:55:36Z</time>
      </trkpt>
      <trkpt lat="43.499" lon="5.44764">
        <ele>217</ele>
        <time>2020-12-05T17:55:45Z</time>
      </trkpt>
      <trkpt lat="43.49853" lon="5.4482">
        <ele>229</ele>
        <time>2020-12-05T17:56:00Z</time>
      </trkpt>
      <trkpt lat="43.49809" lon="5.44894">
        <ele>235</ele>
        <time>2020-12-05T17:56:16Z</time>
      </trkpt>
      <trkpt lat="43.49794" lon="5.44906">
        <ele>238</ele>
        <time>2020-12-05T17:56:20Z</time>
      </trkpt>
      <trkpt lat="43.4977" lon="5.44915">
        <ele>244</ele>
        <time>2020-12-05T17:56:26Z</time>
      </trkpt>
      <trkpt lat="43.49731" lon="5.44942">
        <ele>248</ele>
        <time>2020-12-05T17:56:36Z</time>
      </trkpt>
      <trkpt lat="43.49714" lon="5.44958">
        <ele>248</ele>
        <time>2020-12-05T17:56:41Z</time>
      </trkpt>
      <trkpt lat="43.49703" lon="5.44973">
        <ele>247</ele>
        <time>2020-12-05T17:56:44Z</time>
      </trkpt>
      <trkpt lat="43.49669" lon="5.44995">
        <ele>250</ele>
        <time>2020-12-05T17:56:53Z</time>
      </trkpt>
      <trkpt lat="43.49661" lon="5.45005">
        <ele>249</ele>
        <time>2020-12-05T17:56:56Z</time>
      </trkpt>
      <trkpt lat="43.49647" lon="5.45009">
        <ele>252</ele>
        <time>2020-12-05T17:56:59Z</time>
      </trkpt>
      <trkpt lat="43.49626" lon="5.45022">
        <ele>254</ele>
        <time>2020-12-05T17:57:04Z</time>
      </trkpt>
      <trkpt lat="43.49606" lon="5.45031">
        <ele>257</ele>
        <time>2020-12-05T17:57:09Z</time>
      </trkpt>
      <trkpt lat="43.49545" lon="5.45039">
        <ele>266</ele>
        <time>2020-12-05T17:57:24Z</time>
      </trkpt>
      <trkpt lat="43.4952" lon="5.45035">
        <ele>271</ele>
        <time>2020-12-05T17:57:29Z</time>
      </trkpt>
      <trkpt lat="43.49504" lon="5.4504">
        <ele>272</ele>
        <time>2020-12-05T17:57:33Z</time>
      </trkpt>
      <trkpt lat="43.49463" lon="5.45045">
        <ele>276</ele>
        <time>2020-12-05T17:57:43Z</time>
      </trkpt>
      <trkpt lat="43.4944" lon="5.45056">
        <ele>277</ele>
        <time>2020-12-05T17:57:49Z</time>
      </trkpt>
      <trkpt lat="43.49424" lon="5.45057">
        <ele>279</ele>
        <time>2020-12-05T17:57:52Z</time>
      </trkpt>
      <trkpt lat="43.49403" lon="5.45053">
        <ele>283</ele>
        <time>2020-12-05T17:57:57Z</time>
      </trkpt>
      <trkpt lat="43.49382" lon="5.45056">
        <ele>285</ele>
        <time>2020-12-05T17:58:02Z</time>
      </trkpt>
      <trkpt lat="43.49361" lon="5.45063">
        <ele>288</ele>
        <time>2020-12-05T17:58:07Z</time>
      </trkpt>
      <trkpt lat="43.4934" lon="5.45081">
        <ele>290</ele>
        <time>2020-12-05T17:58:13Z</time>
      </trkpt>
      <trkpt lat="43.49307" lon="5.45101">
        <ele>290</ele>
        <time>2020-12-05T17:58:21Z</time>
      </trkpt>
      <trkpt lat="43.49273" lon="5.4513">
        <ele>290</ele>
        <time>2020-12-05T17:58:31Z</time>
      </trkpt>
      <trkpt lat="43.49247" lon="5.45138">
        <ele>293</ele>
        <time>2020-12-05T17:58:37Z</time>
      </trkpt>
      <trkpt lat="43.49171" lon="5.45175">
        <ele>296</ele>
        <time>2020-12-05T17:58:56Z</time>
      </trkpt>
      <trkpt lat="43.49139" lon="5.45201">
        <ele>293</ele>
        <time>2020-12-05T17:59:04Z</time>
      </trkpt>
      <trkpt lat="43.49109" lon="5.45215">
        <ele>293</ele>
        <time>2020-12-05T17:59:12Z</time>
      </trkpt>
      <trkpt lat="43.49086" lon="5.45233">
        <ele>294</ele>
        <time>2020-12-05T17:59:18Z</time>
      </trkpt>
      <trkpt lat="43.49072" lon="5.45247">
        <ele>295</ele>
        <time>2020-12-05T17:59:22Z</time>
      </trkpt>
      <trkpt lat="43.49057" lon="5.45267">
        <ele>293</ele>
        <time>2020-12-05T17:59:27Z</time>
      </trkpt>
      <trkpt lat="43.49056" lon="5.4527">
        <ele>293</ele>
        <time>2020-12-05T17:59:28Z</time>
      </trkpt>
      <trkpt lat="43.49059" lon="5.45277">
        <ele>293</ele>
        <time>2020-12-05T17:59:29Z</time>
      </trkpt>
      <trkpt lat="43.49056" lon="5.45278">
        <ele>293</ele>
        <time>2020-12-05T17:59:30Z</time>
      </trkpt>
      <trkpt lat="43.49056" lon="5.45275">
        <ele>293</ele>
        <time>2020-12-05T17:59:30Z</time>
      </trkpt>
      <trkpt lat="43.49053" lon="5.45273">
        <ele>293</ele>
        <time>2020-12-05T17:59:31Z</time>
      </trkpt>
      <trkpt lat="43.49045" lon="5.45277">
        <ele>293</ele>
        <time>2020-12-05T17:59:33Z</time>
      </trkpt>
      <trkpt lat="43.48987" lon="5.45334">
        <ele>295</ele>
        <time>2020-12-05T17:59:50Z</time>
      </trkpt>
      <trkpt lat="43.48938" lon="5.45405">
        <ele>300</ele>
        <time>2020-12-05T18:00:06Z</time>
      </trkpt>
      <trkpt lat="43.48889" lon="5.45453">
        <ele>303</ele>
        <time>2020-12-05T18:00:20Z</time>
      </trkpt>
      <trkpt lat="43.48869" lon="5.45468">
        <ele>303</ele>
        <time>2020-12-05T18:00:25Z</time>
      </trkpt>
      <trkpt lat="43.48826" lon="5.45491">
        <ele>305</ele>
        <time>2020-12-05T18:00:36Z</time>
      </trkpt>
      <trkpt lat="43.48805" lon="5.45512">
        <ele>304</ele>
        <time>2020-12-05T18:00:42Z</time>
      </trkpt>
      <trkpt lat="43.48768" lon="5.45563">
        <ele>306</ele>
        <time>2020-12-05T18:00:55Z</time>
      </trkpt>
      <trkpt lat="43.48742" lon="5.4559">
        <ele>308</ele>
        <time>2020-12-05T18:01:02Z</time>
      </trkpt>
      <trkpt lat="43.48722" lon="5.45594">
        <ele>308</ele>
        <time>2020-12-05T18:01:07Z</time>
      </trkpt>
      <trkpt lat="43.48702" lon="5.45584">
        <ele>308</ele>
        <time>2020-12-05T18:01:12Z</time>
      </trkpt>
      <trkpt lat="43.48691" lon="5.45568">
        <ele>307</ele>
        <time>2020-12-05T18:01:16Z</time>
      </trkpt>
      <trkpt lat="43.48669" lon="5.45516">
        <ele>304</ele>
        <time>2020-12-05T18:01:26Z</time>
      </trkpt>
      <trkpt lat="43.48659" lon="5.45504">
        <ele>303</ele>
        <time>2020-12-05T18:01:29Z</time>
      </trkpt>
      <trkpt lat="43.4865" lon="5.45501">
        <ele>302</ele>
        <time>2020-12-05T18:01:31Z</time>
      </trkpt>
      <trkpt lat="43.4864" lon="5.45505">
        <ele>301</ele>
        <time>2020-12-05T18:01:33Z</time>
      </trkpt>
      <trkpt lat="43.48598" lon="5.45548">
        <ele>300</ele>
        <time>2020-12-05T18:01:46Z</time>
      </trkpt>
      <trkpt lat="43.48593" lon="5.45551">
        <ele>300</ele>
        <time>2020-12-05T18:01:47Z</time>
      </trkpt>
      <trkpt lat="43.48582" lon="5.45551">
        <ele>299</ele>
        <time>2020-12-05T18:01:49Z</time>
      </trkpt>
      <trkpt lat="43.4857" lon="5.45543">
        <ele>299</ele>
        <time>2020-12-05T18:01:53Z</time>
      </trkpt>
      <trkpt lat="43.48543" lon="5.45507">
        <ele>298</ele>
        <time>2020-12-05T18:02:01Z</time>
      </trkpt>
      <trkpt lat="43.48476" lon="5.45456">
        <ele>297</ele>
        <time>2020-12-05T18:02:19Z</time>
      </trkpt>
      <trkpt lat="43.48441" lon="5.45445">
        <ele>297</ele>
        <time>2020-12-05T18:02:28Z</time>
      </trkpt>
      <trkpt lat="43.48409" lon="5.45419">
        <ele>298</ele>
        <time>2020-12-05T18:02:36Z</time>
      </trkpt>
      <trkpt lat="43.48403" lon="5.45417">
        <ele>298</ele>
        <time>2020-12-05T18:02:38Z</time>
      </trkpt>
      <trkpt lat="43.48392" lon="5.45417">
        <ele>299</ele>
        <time>2020-12-05T18:02:40Z</time>
      </trkpt>
      <trkpt lat="43.48363" lon="5.45407">
        <ele>303</ele>
        <time>2020-12-05T18:02:47Z</time>
      </trkpt>
      <trkpt lat="43.48342" lon="5.45414">
        <ele>304</ele>
        <time>2020-12-05T18:02:52Z</time>
      </trkpt>
      <trkpt lat="43.4832" lon="5.45434">
        <ele>304</ele>
        <time>2020-12-05T18:02:59Z</time>
      </trkpt>
      <trkpt lat="43.48308" lon="5.45439">
        <ele>304</ele>
        <time>2020-12-05T18:03:01Z</time>
      </trkpt>
      <trkpt lat="43.48295" lon="5.45437">
        <ele>305</ele>
        <time>2020-12-05T18:03:04Z</time>
      </trkpt>
      <trkpt lat="43.4828" lon="5.45438">
        <ele>305</ele>
        <time>2020-12-05T18:03:08Z</time>
      </trkpt>
      <trkpt lat="43.48265" lon="5.45432">
        <ele>306</ele>
        <time>2020-12-05T18:03:12Z</time>
      </trkpt>
      <trkpt lat="43.48255" lon="5.45423">
        <ele>308</ele>
        <time>2020-12-05T18:03:14Z</time>
      </trkpt>
      <trkpt lat="43.48237" lon="5.45413">
        <ele>309</ele>
        <time>2020-12-05T18:03:19Z</time>
      </trkpt>
      <trkpt lat="43.48227" lon="5.4541">
        <ele>309</ele>
        <time>2020-12-05T18:03:21Z</time>
      </trkpt>
      <trkpt lat="43.48207" lon="5.4539">
        <ele>311</ele>
        <time>2020-12-05T18:03:27Z</time>
      </trkpt>
      <trkpt lat="43.48161" lon="5.45369">
        <ele>311</ele>
        <time>2020-12-05T18:03:38Z</time>
      </trkpt>
      <trkpt lat="43.48135" lon="5.45344">
        <ele>310</ele>
        <time>2020-12-05T18:03:46Z</time>
      </trkpt>
      <trkpt lat="43.48134" lon="5.45333">
        <ele>311</ele>
        <time>2020-12-05T18:03:48Z</time>
      </trkpt>
      <trkpt lat="43.48142" lon="5.45312">
        <ele>312</ele>
        <time>2020-12-05T18:03:52Z</time>
      </trkpt>
      <trkpt lat="43.48185" lon="5.45259">
        <ele>314</ele>
        <time>2020-12-05T18:04:05Z</time>
      </trkpt>
      <trkpt lat="43.48204" lon="5.4524">
        <ele>315</ele>
        <time>2020-12-05T18:04:11Z</time>
      </trkpt>
      <trkpt lat="43.48214" lon="5.45217">
        <ele>315</ele>
        <time>2020-12-05T18:04:15Z</time>
      </trkpt>
      <trkpt lat="43.4824" lon="5.45082">
        <ele>315</ele>
        <time>2020-12-05T18:04:39Z</time>
      </trkpt>
      <trkpt lat="43.48259" lon="5.44968">
        <ele>312</ele>
        <time>2020-12-05T18:04:59Z</time>
      </trkpt>
      <trkpt lat="43.48247" lon="5.44818">
        <ele>308</ele>
        <time>2020-12-05T18:05:24Z</time>
      </trkpt>
      <trkpt lat="43.48232" lon="5.44753">
        <ele>305</ele>
        <time>2020-12-05T18:05:36Z</time>
      </trkpt>
      <trkpt lat="43.48236" lon="5.44731">
        <ele>305</ele>
        <time>2020-12-05T18:05:40Z</time>
      </trkpt>
      <trkpt lat="43.48262" lon="5.44667">
        <ele>306</ele>
        <time>2020-12-05T18:05:52Z</time>
      </trkpt>
      <trkpt lat="43.48266" lon="5.44663">
        <ele>306</ele>
        <time>2020-12-05T18:05:53Z</time>
      </trkpt>
      <trkpt lat="43.48262" lon="5.44659">
        <ele>306</ele>
        <time>2020-12-05T18:05:54Z</time>
      </trkpt>
      <trkpt lat="43.48264" lon="5.44654">
        <ele>306</ele>
        <time>2020-12-05T18:05:55Z</time>
      </trkpt>
      <trkpt lat="43.48267" lon="5.44656">
        <ele>306</ele>
        <time>2020-12-05T18:05:56Z</time>
      </trkpt>
      <trkpt lat="43.48265" lon="5.44653">
        <ele>306</ele>
        <time>2020-12-05T18:05:57Z</time>
      </trkpt>
      <trkpt lat="43.48265" lon="5.44656">
        <ele>306</ele>
        <time>2020-12-05T18:05:57Z</time>
      </trkpt>
      <trkpt lat="43.48262" lon="5.44655">
        <ele>306</ele>
        <time>2020-12-05T18:05:58Z</time>
      </trkpt>
      <trkpt lat="43.48265" lon="5.44658">
        <ele>306</ele>
        <time>2020-12-05T18:05:59Z</time>
      </trkpt>
      <trkpt lat="43.48264" lon="5.44655">
        <ele>306</ele>
        <time>2020-12-05T18:06:00Z</time>
      </trkpt>
      <trkpt lat="43.48266" lon="5.44654">
        <ele>306</ele>
        <time>2020-12-05T18:06:00Z</time>
      </trkpt>
      <trkpt lat="43.48261" lon="5.4465">
        <ele>306</ele>
        <time>2020-12-05T18:06:01Z</time>
      </trkpt>
      <trkpt lat="43.48265" lon="5.44638">
        <ele>306</ele>
        <time>2020-12-05T18:06:04Z</time>
      </trkpt>
      <trkpt lat="43.48278" lon="5.44613">
        <ele>306</ele>
        <time>2020-12-05T18:06:09Z</time>
      </trkpt>
      <trkpt lat="43.48308" lon="5.44541">
        <ele>308</ele>
        <time>2020-12-05T18:06:23Z</time>
      </trkpt>
      <trkpt lat="43.48309" lon="5.44546">
        <ele>308</ele>
        <time>2020-12-05T18:06:24Z</time>
      </trkpt>
      <trkpt lat="43.48306" lon="5.44537">
        <ele>308</ele>
        <time>2020-12-05T18:06:25Z</time>
      </trkpt>
      <trkpt lat="43.48277" lon="5.44529">
        <ele>306</ele>
        <time>2020-12-05T18:06:32Z</time>
      </trkpt>
      <trkpt lat="43.48263" lon="5.44534">
        <ele>305</ele>
        <time>2020-12-05T18:06:36Z</time>
      </trkpt>
      <trkpt lat="43.48247" lon="5.44531">
        <ele>304</ele>
        <time>2020-12-05T18:06:40Z</time>
      </trkpt>
      <trkpt lat="43.48229" lon="5.44514">
        <ele>301</ele>
        <time>2020-12-05T18:06:45Z</time>
      </trkpt>
      <trkpt lat="43.48213" lon="5.44491">
        <ele>299</ele>
        <time>2020-12-05T18:06:50Z</time>
      </trkpt>
      <trkpt lat="43.48198" lon="5.44475">
        <ele>298</ele>
        <time>2020-12-05T18:06:54Z</time>
      </trkpt>
      <trkpt lat="43.48185" lon="5.44473">
        <ele>296</ele>
        <time>2020-12-05T18:06:57Z</time>
      </trkpt>
      <trkpt lat="43.48151" lon="5.44455">
        <ele>291</ele>
        <time>2020-12-05T18:07:06Z</time>
      </trkpt>
      <trkpt lat="43.4813" lon="5.4447">
        <ele>286</ele>
        <time>2020-12-05T18:07:12Z</time>
      </trkpt>
      <trkpt lat="43.48118" lon="5.44472">
        <ele>283</ele>
        <time>2020-12-05T18:07:14Z</time>
      </trkpt>
      <trkpt lat="43.48103" lon="5.44465">
        <ele>280</ele>
        <time>2020-12-05T18:07:18Z</time>
      </trkpt>
      <trkpt lat="43.48099" lon="5.44466">
        <ele>279</ele>
        <time>2020-12-05T18:07:19Z</time>
      </trkpt>
      <trkpt lat="43.48094" lon="5.44476">
        <ele>278</ele>
        <time>2020-12-05T18:07:21Z</time>
      </trkpt>
      <trkpt lat="43.4808" lon="5.44472">
        <ele>275</ele>
        <time>2020-12-05T18:07:24Z</time>
      </trkpt>
      <trkpt lat="43.48073" lon="5.44476">
        <ele>274</ele>
        <time>2020-12-05T18:07:26Z</time>
      </trkpt>
      <trkpt lat="43.48074" lon="5.4448">
        <ele>274</ele>
        <time>2020-12-05T18:07:27Z</time>
      </trkpt>
      <trkpt lat="43.4807" lon="5.44485">
        <ele>274</ele>
        <time>2020-12-05T18:07:28Z</time>
      </trkpt>
      <trkpt lat="43.48059" lon="5.44481">
        <ele>272</ele>
        <time>2020-12-05T18:07:31Z</time>
      </trkpt>
      <trkpt lat="43.48064" lon="5.44498">
        <ele>273</ele>
        <time>2020-12-05T18:07:34Z</time>
      </trkpt>
      <trkpt lat="43.48063" lon="5.44501">
        <ele>273</ele>
        <time>2020-12-05T18:07:34Z</time>
      </trkpt>
      <trkpt lat="43.4806" lon="5.44501">
        <ele>272</ele>
        <time>2020-12-05T18:07:35Z</time>
      </trkpt>
      <trkpt lat="43.48046" lon="5.44516">
        <ele>271</ele>
        <time>2020-12-05T18:07:39Z</time>
      </trkpt>
      <trkpt lat="43.48033" lon="5.44515">
        <ele>269</ele>
        <time>2020-12-05T18:07:42Z</time>
      </trkpt>
      <trkpt lat="43.48018" lon="5.44507">
        <ele>266</ele>
        <time>2020-12-05T18:07:46Z</time>
      </trkpt>
      <trkpt lat="43.47969" lon="5.44509">
        <ele>266</ele>
        <time>2020-12-05T18:07:58Z</time>
      </trkpt>
      <trkpt lat="43.47955" lon="5.44518">
        <ele>268</ele>
        <time>2020-12-05T18:08:01Z</time>
      </trkpt>
      <trkpt lat="43.47952" lon="5.4451">
        <ele>268</ele>
        <time>2020-12-05T18:08:03Z</time>
      </trkpt>
      <trkpt lat="43.47931" lon="5.44502">
        <ele>270</ele>
        <time>2020-12-05T18:08:08Z</time>
      </trkpt>
      <trkpt lat="43.47925" lon="5.44497">
        <ele>271</ele>
        <time>2020-12-05T18:08:09Z</time>
      </trkpt>
      <trkpt lat="43.47905" lon="5.44489">
        <ele>273</ele>
        <time>2020-12-05T18:08:14Z</time>
      </trkpt>
      <trkpt lat="43.47898" lon="5.44489">
        <ele>274</ele>
        <time>2020-12-05T18:08:16Z</time>
      </trkpt>
      <trkpt lat="43.47884" lon="5.44482">
        <ele>276</ele>
        <time>2020-12-05T18:08:19Z</time>
      </trkpt>
      <trkpt lat="43.47862" lon="5.44479">
        <ele>279</ele>
        <time>2020-12-05T18:08:25Z</time>
      </trkpt>
      <trkpt lat="43.47847" lon="5.44473">
        <ele>281</ele>
        <time>2020-12-05T18:08:28Z</time>
      </trkpt>
      <trkpt lat="43.47841" lon="5.44466">
        <ele>282</ele>
        <time>2020-12-05T18:08:30Z</time>
      </trkpt>
      <trkpt lat="43.47823" lon="5.44457">
        <ele>283</ele>
        <time>2020-12-05T18:08:34Z</time>
      </trkpt>
      <trkpt lat="43.478" lon="5.44453">
        <ele>284</ele>
        <time>2020-12-05T18:08:40Z</time>
      </trkpt>
      <trkpt lat="43.47791" lon="5.44446">
        <ele>284</ele>
        <time>2020-12-05T18:08:42Z</time>
      </trkpt>
      <trkpt lat="43.47771" lon="5.44441">
        <ele>284</ele>
        <time>2020-12-05T18:08:47Z</time>
      </trkpt>
      <trkpt lat="43.47776" lon="5.44429">
        <ele>283</ele>
        <time>2020-12-05T18:08:49Z</time>
      </trkpt>
      <trkpt lat="43.47811" lon="5.44375">
        <ele>279</ele>
        <time>2020-12-05T18:09:02Z</time>
      </trkpt>
      <trkpt lat="43.47832" lon="5.44307">
        <ele>277</ele>
        <time>2020-12-05T18:09:14Z</time>
      </trkpt>
      <trkpt lat="43.47833" lon="5.44287">
        <ele>277</ele>
        <time>2020-12-05T18:09:18Z</time>
      </trkpt>
      <trkpt lat="43.4782" lon="5.44243">
        <ele>275</ele>
        <time>2020-12-05T18:09:26Z</time>
      </trkpt>
      <trkpt lat="43.47813" lon="5.44207">
        <ele>275</ele>
        <time>2020-12-05T18:09:32Z</time>
      </trkpt>
      <trkpt lat="43.47813" lon="5.44192">
        <ele>276</ele>
        <time>2020-12-05T18:09:35Z</time>
      </trkpt>
      <trkpt lat="43.4782" lon="5.4414">
        <ele>279</ele>
        <time>2020-12-05T18:09:43Z</time>
      </trkpt>
      <trkpt lat="43.4782" lon="5.44112">
        <ele>280</ele>
        <time>2020-12-05T18:09:48Z</time>
      </trkpt>
      <trkpt lat="43.47826" lon="5.44085">
        <ele>282</ele>
        <time>2020-12-05T18:09:53Z</time>
      </trkpt>
      <trkpt lat="43.47828" lon="5.44042">
        <ele>282</ele>
        <time>2020-12-05T18:10:00Z</time>
      </trkpt>
      <trkpt lat="43.4785" lon="5.4383">
        <ele>286</ele>
        <time>2020-12-05T18:10:37Z</time>
      </trkpt>
      <trkpt lat="43.47849" lon="5.43801">
        <ele>288</ele>
        <time>2020-12-05T18:10:42Z</time>
      </trkpt>
      <trkpt lat="43.47847" lon="5.43794">
        <ele>289</ele>
        <time>2020-12-05T18:10:43Z</time>
      </trkpt>
      <trkpt lat="43.47839" lon="5.43792">
        <ele>289</ele>
        <time>2020-12-05T18:10:45Z</time>
      </trkpt>
      <trkpt lat="43.47754" lon="5.43728">
        <ele>279</ele>
        <time>2020-12-05T18:11:07Z</time>
      </trkpt>
      <trkpt lat="43.47748" lon="5.43714">
        <ele>278</ele>
        <time>2020-12-05T18:11:10Z</time>
      </trkpt>
      <trkpt lat="43.4775" lon="5.43685">
        <ele>277</ele>
        <time>2020-12-05T18:11:15Z</time>
      </trkpt>
      <trkpt lat="43.47744" lon="5.43661">
        <ele>274</ele>
        <time>2020-12-05T18:11:19Z</time>
      </trkpt>
      <trkpt lat="43.4772" lon="5.43665">
        <ele>268</ele>
        <time>2020-12-05T18:11:25Z</time>
      </trkpt>
      <trkpt lat="43.47699" lon="5.43651">
        <ele>260</ele>
        <time>2020-12-05T18:11:30Z</time>
      </trkpt>
      <trkpt lat="43.47692" lon="5.43652">
        <ele>259</ele>
        <time>2020-12-05T18:11:32Z</time>
      </trkpt>
      <trkpt lat="43.47678" lon="5.43647">
        <ele>255</ele>
        <time>2020-12-05T18:11:35Z</time>
      </trkpt>
      <trkpt lat="43.47677" lon="5.4364">
        <ele>253</ele>
        <time>2020-12-05T18:11:37Z</time>
      </trkpt>
      <trkpt lat="43.47679" lon="5.43636">
        <ele>253</ele>
        <time>2020-12-05T18:11:37Z</time>
      </trkpt>
      <trkpt lat="43.47702" lon="5.4361">
        <ele>256</ele>
        <time>2020-12-05T18:11:44Z</time>
      </trkpt>
      <trkpt lat="43.47722" lon="5.43567">
        <ele>254</ele>
        <time>2020-12-05T18:11:53Z</time>
      </trkpt>
      <trkpt lat="43.47745" lon="5.43528">
        <ele>251</ele>
        <time>2020-12-05T18:12:02Z</time>
      </trkpt>
      <trkpt lat="43.47737" lon="5.43509">
        <ele>246</ele>
        <time>2020-12-05T18:12:05Z</time>
      </trkpt>
      <trkpt lat="43.47735" lon="5.43508">
        <ele>246</ele>
        <time>2020-12-05T18:12:06Z</time>
      </trkpt>
      <trkpt lat="43.47732" lon="5.43511">
        <ele>246</ele>
        <time>2020-12-05T18:12:07Z</time>
      </trkpt>
      <trkpt lat="43.47729" lon="5.43508">
        <ele>245</ele>
        <time>2020-12-05T18:12:08Z</time>
      </trkpt>
      <trkpt lat="43.47733" lon="5.43508">
        <ele>246</ele>
        <time>2020-12-05T18:12:08Z</time>
      </trkpt>
      <trkpt lat="43.4773" lon="5.43506">
        <ele>245</ele>
        <time>2020-12-05T18:12:09Z</time>
      </trkpt>
      <trkpt lat="43.47711" lon="5.43464">
        <ele>236</ele>
        <time>2020-12-05T18:12:18Z</time>
      </trkpt>
      <trkpt lat="43.47707" lon="5.43447">
        <ele>233</ele>
        <time>2020-12-05T18:12:21Z</time>
      </trkpt>
      <trkpt lat="43.47708" lon="5.4342">
        <ele>230</ele>
        <time>2020-12-05T18:12:25Z</time>
      </trkpt>
      <trkpt lat="43.47704" lon="5.43413">
        <ele>228</ele>
        <time>2020-12-05T18:12:27Z</time>
      </trkpt>
      <trkpt lat="43.47698" lon="5.43414">
        <ele>228</ele>
        <time>2020-12-05T18:12:28Z</time>
      </trkpt>
      <trkpt lat="43.47683" lon="5.43424">
        <ele>227</ele>
        <time>2020-12-05T18:12:32Z</time>
      </trkpt>
      <trkpt lat="43.47679" lon="5.4341">
        <ele>225</ele>
        <time>2020-12-05T18:12:35Z</time>
      </trkpt>
      <trkpt lat="43.47673" lon="5.43406">
        <ele>223</ele>
        <time>2020-12-05T18:12:36Z</time>
      </trkpt>
      <trkpt lat="43.47667" lon="5.43392">
        <ele>220</ele>
        <time>2020-12-05T18:12:39Z</time>
      </trkpt>
      <trkpt lat="43.47662" lon="5.43391">
        <ele>219</ele>
        <time>2020-12-05T18:12:40Z</time>
      </trkpt>
      <trkpt lat="43.47652" lon="5.43383">
        <ele>215</ele>
        <time>2020-12-05T18:12:43Z</time>
      </trkpt>
      <trkpt lat="43.47652" lon="5.43374">
        <ele>214</ele>
        <time>2020-12-05T18:12:44Z</time>
      </trkpt>
      <trkpt lat="43.47656" lon="5.43377">
        <ele>216</ele>
        <time>2020-12-05T18:12:45Z</time>
      </trkpt>
      <trkpt lat="43.47661" lon="5.43376">
        <ele>217</ele>
        <time>2020-12-05T18:12:47Z</time>
      </trkpt>
      <trkpt lat="43.47676" lon="5.43382">
        <ele>220</ele>
        <time>2020-12-05T18:12:50Z</time>
      </trkpt>
      <trkpt lat="43.4769" lon="5.43384">
        <ele>222</ele>
        <time>2020-12-05T18:12:53Z</time>
      </trkpt>
      <trkpt lat="43.47697" lon="5.43381">
        <ele>222</ele>
        <time>2020-12-05T18:12:55Z</time>
      </trkpt>
      <trkpt lat="43.47705" lon="5.43372">
        <ele>221</ele>
        <time>2020-12-05T18:12:58Z</time>
      </trkpt>
      <trkpt lat="43.47716" lon="5.43367">
        <ele>222</ele>
        <time>2020-12-05T18:13:00Z</time>
      </trkpt>
      <trkpt lat="43.47721" lon="5.43366">
        <ele>222</ele>
        <time>2020-12-05T18:13:01Z</time>
      </trkpt>
      <trkpt lat="43.47723" lon="5.43369">
        <ele>223</ele>
        <time>2020-12-05T18:13:02Z</time>
      </trkpt>
      <trkpt lat="43.47747" lon="5.43359">
        <ele>223</ele>
        <time>2020-12-05T18:13:08Z</time>
      </trkpt>
      <trkpt lat="43.47755" lon="5.43351">
        <ele>221</ele>
        <time>2020-12-05T18:13:10Z</time>
      </trkpt>
      <trkpt lat="43.47761" lon="5.43323">
        <ele>215</ele>
        <time>2020-12-05T18:13:15Z</time>
      </trkpt>
      <trkpt lat="43.47783" lon="5.43312">
        <ele>212</ele>
        <time>2020-12-05T18:13:21Z</time>
      </trkpt>
      <trkpt lat="43.4778" lon="5.43301">
        <ele>210</ele>
        <time>2020-12-05T18:13:23Z</time>
      </trkpt>
      <trkpt lat="43.47784" lon="5.43288">
        <ele>208</ele>
        <time>2020-12-05T18:13:25Z</time>
      </trkpt>
      <trkpt lat="43.47789" lon="5.43284">
        <ele>207</ele>
        <time>2020-12-05T18:13:26Z</time>
      </trkpt>
      <trkpt lat="43.47782" lon="5.43269">
        <ele>205</ele>
        <time>2020-12-05T18:13:30Z</time>
      </trkpt>
      <trkpt lat="43.47712" lon="5.43243">
        <ele>195</ele>
        <time>2020-12-05T18:13:46Z</time>
      </trkpt>
      <trkpt lat="43.47665" lon="5.43236">
        <ele>190</ele>
        <time>2020-12-05T18:13:57Z</time>
      </trkpt>
      <trkpt lat="43.47655" lon="5.43237">
        <ele>189</ele>
        <time>2020-12-05T18:14:00Z</time>
      </trkpt>
      <trkpt lat="43.47635" lon="5.43223">
        <ele>184</ele>
        <time>2020-12-05T18:14:05Z</time>
      </trkpt>
      <trkpt lat="43.47621" lon="5.4322">
        <ele>182</ele>
        <time>2020-12-05T18:14:08Z</time>
      </trkpt>
      <trkpt lat="43.47621" lon="5.43215">
        <ele>181</ele>
        <time>2020-12-05T18:14:09Z</time>
      </trkpt>
      <trkpt lat="43.47616" lon="5.43206">
        <ele>180</ele>
        <time>2020-12-05T18:14:11Z</time>
      </trkpt>
      <trkpt lat="43.476" lon="5.43209">
        <ele>177</ele>
        <time>2020-12-05T18:14:15Z</time>
      </trkpt>
      <trkpt lat="43.47553" lon="5.43195">
        <ele>171</ele>
        <time>2020-12-05T18:14:26Z</time>
      </trkpt>
      <trkpt lat="43.47555" lon="5.43172">
        <ele>169</ele>
        <time>2020-12-05T18:14:30Z</time>
      </trkpt>
      <trkpt lat="43.47574" lon="5.43143">
        <ele>168</ele>
        <time>2020-12-05T18:14:37Z</time>
      </trkpt>
      <trkpt lat="43.47576" lon="5.43132">
        <ele>168</ele>
        <time>2020-12-05T18:14:39Z</time>
      </trkpt>
      <trkpt lat="43.47566" lon="5.43125">
        <ele>167</ele>
        <time>2020-12-05T18:14:41Z</time>
      </trkpt>
      <trkpt lat="43.47557" lon="5.43131">
        <ele>167</ele>
        <time>2020-12-05T18:14:44Z</time>
      </trkpt>
      <trkpt lat="43.47534" lon="5.4316">
        <ele>167</ele>
        <time>2020-12-05T18:14:51Z</time>
      </trkpt>
      <trkpt lat="43.47514" lon="5.43192">
        <ele>168</ele>
        <time>2020-12-05T18:14:58Z</time>
      </trkpt>
      <trkpt lat="43.47488" lon="5.43252">
        <ele>170</ele>
        <time>2020-12-05T18:15:10Z</time>
      </trkpt>
      <trkpt lat="43.47456" lon="5.43297">
        <ele>171</ele>
        <time>2020-12-05T18:15:21Z</time>
      </trkpt>
      <trkpt lat="43.47449" lon="5.43301">
        <ele>170</ele>
        <time>2020-12-05T18:15:22Z</time>
      </trkpt>
      <trkpt lat="43.47404" lon="5.43303">
        <ele>169</ele>
        <time>2020-12-05T18:15:33Z</time>
      </trkpt>
      <trkpt lat="43.47387" lon="5.43289">
        <ele>170</ele>
        <time>2020-12-05T18:15:37Z</time>
      </trkpt>
      <trkpt lat="43.47371" lon="5.4328">
        <ele>170</ele>
        <time>2020-12-05T18:15:41Z</time>
      </trkpt>
      <trkpt lat="43.47279" lon="5.43285">
        <ele>175</ele>
        <time>2020-12-05T18:16:03Z</time>
      </trkpt>
      <trkpt lat="43.47255" lon="5.43289">
        <ele>177</ele>
        <time>2020-12-05T18:16:09Z</time>
      </trkpt>
      <trkpt lat="43.47225" lon="5.43299">
        <ele>180</ele>
        <time>2020-12-05T18:16:16Z</time>
      </trkpt>
      <trkpt lat="43.47204" lon="5.43296">
        <ele>181</ele>
        <time>2020-12-05T18:16:21Z</time>
      </trkpt>
      <trkpt lat="43.47192" lon="5.43285">
        <ele>180</ele>
        <time>2020-12-05T18:16:24Z</time>
      </trkpt>
      <trkpt lat="43.47173" lon="5.4325">
        <ele>178</ele>
        <time>2020-12-05T18:16:32Z</time>
      </trkpt>
      <trkpt lat="43.47172" lon="5.43234">
        <ele>180</ele>
        <time>2020-12-05T18:16:34Z</time>
      </trkpt>
      <trkpt lat="43.47161" lon="5.43192">
        <ele>186</ele>
        <time>2020-12-05T18:16:42Z</time>
      </trkpt>
      <trkpt lat="43.47151" lon="5.43173">
        <ele>189</ele>
        <time>2020-12-05T18:16:46Z</time>
      </trkpt>
      <trkpt lat="43.47132" lon="5.43147">
        <ele>193</ele>
        <time>2020-12-05T18:16:52Z</time>
      </trkpt>
      <trkpt lat="43.47106" lon="5.43128">
        <ele>195</ele>
        <time>2020-12-05T18:16:59Z</time>
      </trkpt>
      <trkpt lat="43.47075" lon="5.43118">
        <ele>196</ele>
        <time>2020-12-05T18:17:06Z</time>
      </trkpt>
      <trkpt lat="43.47063" lon="5.43117">
        <ele>197</ele>
        <time>2020-12-05T18:17:09Z</time>
      </trkpt>
      <trkpt lat="43.47044" lon="5.43107">
        <ele>198</ele>
        <time>2020-12-05T18:17:14Z</time>
      </trkpt>
      <trkpt lat="43.47032" lon="5.43107">
        <ele>198</ele>
        <time>2020-12-05T18:17:17Z</time>
      </trkpt>
      <trkpt lat="43.47012" lon="5.43113">
        <ele>199</ele>
        <time>2020-12-05T18:17:22Z</time>
      </trkpt>
      <trkpt lat="43.46993" lon="5.4311">
        <ele>200</ele>
        <time>2020-12-05T18:17:26Z</time>
      </trkpt>
      <trkpt lat="43.46969" lon="5.43097">
        <ele>200</ele>
        <time>2020-12-05T18:17:32Z</time>
      </trkpt>
      <trkpt lat="43.46961" lon="5.43085">
        <ele>200</ele>
        <time>2020-12-05T18:17:35Z</time>
      </trkpt>
      <trkpt lat="43.46936" lon="5.43058">
        <ele>202</ele>
        <time>2020-12-05T18:17:42Z</time>
      </trkpt>
      <trkpt lat="43.46892" lon="5.4297">
        <ele>212</ele>
        <time>2020-12-05T18:18:00Z</time>
      </trkpt>
      <trkpt lat="43.46859" lon="5.42912">
        <ele>217</ele>
        <time>2020-12-05T18:18:13Z</time>
      </trkpt>
      <trkpt lat="43.46805" lon="5.42836">
        <ele>219</ele>
        <time>2020-12-05T18:18:31Z</time>
      </trkpt>
      <trkpt lat="43.46788" lon="5.42816">
        <ele>220</ele>
        <time>2020-12-05T18:18:36Z</time>
      </trkpt>
      <trkpt lat="43.46761" lon="5.4279">
        <ele>221</ele>
        <time>2020-12-05T18:18:44Z</time>
      </trkpt>
      <trkpt lat="43.46737" lon="5.42746">
        <ele>222</ele>
        <time>2020-12-05T18:18:53Z</time>
      </trkpt>
      <trkpt lat="43.46726" lon="5.42718">
        <ele>226</ele>
        <time>2020-12-05T18:18:58Z</time>
      </trkpt>
      <trkpt lat="43.4669" lon="5.42654">
        <ele>232</ele>
        <time>2020-12-05T18:19:12Z</time>
      </trkpt>
      <trkpt lat="43.46683" lon="5.42648">
        <ele>232</ele>
        <time>2020-12-05T18:19:14Z</time>
      </trkpt>
      <trkpt lat="43.46679" lon="5.4265">
        <ele>232</ele>
        <time>2020-12-05T18:19:15Z</time>
      </trkpt>
      <trkpt lat="43.46678" lon="5.42658">
        <ele>233</ele>
        <time>2020-12-05T18:19:16Z</time>
      </trkpt>
      <trkpt lat="43.46668" lon="5.4267">
        <ele>234</ele>
        <time>2020-12-05T18:19:20Z</time>
      </trkpt>
      <trkpt lat="43.46649" lon="5.42701">
        <ele>237</ele>
        <time>2020-12-05T18:19:26Z</time>
      </trkpt>
      <trkpt lat="43.46638" lon="5.42731">
        <ele>239</ele>
        <time>2020-12-05T18:19:32Z</time>
      </trkpt>
      <trkpt lat="43.46621" lon="5.4276">
        <ele>244</ele>
        <time>2020-12-05T18:19:38Z</time>
      </trkpt>
      <trkpt lat="43.46613" lon="5.42792">
        <ele>247</ele>
        <time>2020-12-05T18:19:44Z</time>
      </trkpt>
      <trkpt lat="43.46601" lon="5.42813">
        <ele>250</ele>
        <time>2020-12-05T18:19:49Z</time>
      </trkpt>
      <trkpt lat="43.46589" lon="5.42841">
        <ele>254</ele>
        <time>2020-12-05T18:19:54Z</time>
      </trkpt>
      <trkpt lat="43.46572" lon="5.42905">
        <ele>263</ele>
        <time>2020-12-05T18:20:06Z</time>
      </trkpt>
      <trkpt lat="43.4657" lon="5.42927">
        <ele>265</ele>
        <time>2020-12-05T18:20:10Z</time>
      </trkpt>
      <trkpt lat="43.46564" lon="5.42949">
        <ele>267</ele>
        <time>2020-12-05T18:20:14Z</time>
      </trkpt>
      <trkpt lat="43.46551" lon="5.42969">
        <ele>270</ele>
        <time>2020-12-05T18:20:18Z</time>
      </trkpt>
      <trkpt lat="43.46544" lon="5.42977">
        <ele>271</ele>
        <time>2020-12-05T18:20:20Z</time>
      </trkpt>
      <trkpt lat="43.46528" lon="5.42987">
        <ele>272</ele>
        <time>2020-12-05T18:20:24Z</time>
      </trkpt>
      <trkpt lat="43.46507" lon="5.43008">
        <ele>273</ele>
        <time>2020-12-05T18:20:30Z</time>
      </trkpt>
      <trkpt lat="43.46484" lon="5.4302">
        <ele>272</ele>
        <time>2020-12-05T18:20:36Z</time>
      </trkpt>
      <trkpt lat="43.46475" lon="5.4302">
        <ele>273</ele>
        <time>2020-12-05T18:20:38Z</time>
      </trkpt>
      <trkpt lat="43.46458" lon="5.43014">
        <ele>274</ele>
        <time>2020-12-05T18:20:42Z</time>
      </trkpt>
      <trkpt lat="43.4646" lon="5.43011">
        <ele>274</ele>
        <time>2020-12-05T18:20:43Z</time>
      </trkpt>
      <trkpt lat="43.46452" lon="5.43018">
        <ele>274</ele>
        <time>2020-12-05T18:20:45Z</time>
      </trkpt>
      <trkpt lat="43.46426" lon="5.43023">
        <ele>275</ele>
        <time>2020-12-05T18:20:51Z</time>
      </trkpt>
      <trkpt lat="43.46381" lon="5.43038">
        <ele>280</ele>
        <time>2020-12-05T18:21:02Z</time>
      </trkpt>
      <trkpt lat="43.46376" lon="5.43044">
        <ele>281</ele>
        <time>2020-12-05T18:21:04Z</time>
      </trkpt>
      <trkpt lat="43.46352" lon="5.43061">
        <ele>285</ele>
        <time>2020-12-05T18:21:10Z</time>
      </trkpt>
      <trkpt lat="43.46345" lon="5.43063">
        <ele>286</ele>
        <time>2020-12-05T18:21:12Z</time>
      </trkpt>
      <trkpt lat="43.46337" lon="5.4306">
        <ele>288</ele>
        <time>2020-12-05T18:21:14Z</time>
      </trkpt>
      <trkpt lat="43.46319" lon="5.43061">
        <ele>290</ele>
        <time>2020-12-05T18:21:18Z</time>
      </trkpt>
      <trkpt lat="43.46312" lon="5.43067">
        <ele>291</ele>
        <time>2020-12-05T18:21:20Z</time>
      </trkpt>
      <trkpt lat="43.46289" lon="5.43113">
        <ele>294</ele>
        <time>2020-12-05T18:21:29Z</time>
      </trkpt>
      <trkpt lat="43.4627" lon="5.43142">
        <ele>295</ele>
        <time>2020-12-05T18:21:36Z</time>
      </trkpt>
      <trkpt lat="43.46254" lon="5.43173">
        <ele>296</ele>
        <time>2020-12-05T18:21:42Z</time>
      </trkpt>
      <trkpt lat="43.46231" lon="5.43195">
        <ele>299</ele>
        <time>2020-12-05T18:21:49Z</time>
      </trkpt>
      <trkpt lat="43.46197" lon="5.43242">
        <ele>302</ele>
        <time>2020-12-05T18:22:00Z</time>
      </trkpt>
      <trkpt lat="43.46182" lon="5.43269">
        <ele>302</ele>
        <time>2020-12-05T18:22:06Z</time>
      </trkpt>
      <trkpt lat="43.46166" lon="5.43284">
        <ele>304</ele>
        <time>2020-12-05T18:22:10Z</time>
      </trkpt>
      <trkpt lat="43.46131" lon="5.43324">
        <ele>304</ele>
        <time>2020-12-05T18:22:21Z</time>
      </trkpt>
      <trkpt lat="43.46068" lon="5.43387">
        <ele>307</ele>
        <time>2020-12-05T18:22:39Z</time>
      </trkpt>
      <trkpt lat="43.46041" lon="5.4343">
        <ele>305</ele>
        <time>2020-12-05T18:22:49Z</time>
      </trkpt>
      <trkpt lat="43.4602" lon="5.43473">
        <ele>301</ele>
        <time>2020-12-05T18:22:58Z</time>
      </trkpt>
      <trkpt lat="43.45995" lon="5.43498">
        <ele>300</ele>
        <time>2020-12-05T18:23:05Z</time>
      </trkpt>
      <trkpt lat="43.45972" lon="5.43535">
        <ele>303</ele>
        <time>2020-12-05T18:23:13Z</time>
      </trkpt>
      <trkpt lat="43.45959" lon="5.43546">
        <ele>305</ele>
        <time>2020-12-05T18:23:17Z</time>
      </trkpt>
      <trkpt lat="43.45933" lon="5.43562">
        <ele>308</ele>
        <time>2020-12-05T18:23:23Z</time>
      </trkpt>
      <trkpt lat="43.45884" lon="5.43613">
        <ele>311</ele>
        <time>2020-12-05T18:23:38Z</time>
      </trkpt>
      <trkpt lat="43.45869" lon="5.43655">
        <ele>310</ele>
        <time>2020-12-05T18:23:46Z</time>
      </trkpt>
      <trkpt lat="43.45867" lon="5.43682">
        <ele>309</ele>
        <time>2020-12-05T18:23:50Z</time>
      </trkpt>
      <trkpt lat="43.4587" lon="5.43695">
        <ele>309</ele>
        <time>2020-12-05T18:23:52Z</time>
      </trkpt>
      <trkpt lat="43.45867" lon="5.43708">
        <ele>310</ele>
        <time>2020-12-05T18:23:55Z</time>
      </trkpt>
      <trkpt lat="43.45851" lon="5.43738">
        <ele>312</ele>
        <time>2020-12-05T18:24:01Z</time>
      </trkpt>
      <trkpt lat="43.45833" lon="5.4378">
        <ele>313</ele>
        <time>2020-12-05T18:24:09Z</time>
      </trkpt>
      <trkpt lat="43.45823" lon="5.43793">
        <ele>314</ele>
        <time>2020-12-05T18:24:13Z</time>
      </trkpt>
      <trkpt lat="43.45807" lon="5.43823">
        <ele>315</ele>
        <time>2020-12-05T18:24:19Z</time>
      </trkpt>
      <trkpt lat="43.45788" lon="5.43885">
        <ele>317</ele>
        <time>2020-12-05T18:24:30Z</time>
      </trkpt>
      <trkpt lat="43.45778" lon="5.43905">
        <ele>317</ele>
        <time>2020-12-05T18:24:34Z</time>
      </trkpt>
      <trkpt lat="43.45764" lon="5.43925">
        <ele>319</ele>
        <time>2020-12-05T18:24:39Z</time>
      </trkpt>
      <trkpt lat="43.45706" lon="5.43969">
        <ele>320</ele>
        <time>2020-12-05T18:24:55Z</time>
      </trkpt>
      <trkpt lat="43.45688" lon="5.43977">
        <ele>320</ele>
        <time>2020-12-05T18:24:59Z</time>
      </trkpt>
      <trkpt lat="43.45681" lon="5.43984">
        <ele>321</ele>
        <time>2020-12-05T18:25:01Z</time>
      </trkpt>
      <trkpt lat="43.45679" lon="5.44006">
        <ele>321</ele>
        <time>2020-12-05T18:25:05Z</time>
      </trkpt>
      <trkpt lat="43.45667" lon="5.44019">
        <ele>321</ele>
        <time>2020-12-05T18:25:08Z</time>
      </trkpt>
      <trkpt lat="43.45661" lon="5.44031">
        <ele>321</ele>
        <time>2020-12-05T18:25:11Z</time>
      </trkpt>
      <trkpt lat="43.45671" lon="5.44068">
        <ele>322</ele>
        <time>2020-12-05T18:25:17Z</time>
      </trkpt>
      <trkpt lat="43.45687" lon="5.44113">
        <ele>321</ele>
        <time>2020-12-05T18:25:26Z</time>
      </trkpt>
      <trkpt lat="43.4569" lon="5.44145">
        <ele>321</ele>
        <time>2020-12-05T18:25:31Z</time>
      </trkpt>
      <trkpt lat="43.457" lon="5.44171">
        <ele>320</ele>
        <time>2020-12-05T18:25:36Z</time>
      </trkpt>
      <trkpt lat="43.45724" lon="5.44207">
        <ele>318</ele>
        <time>2020-12-05T18:25:45Z</time>
      </trkpt>
      <trkpt lat="43.45731" lon="5.44213">
        <ele>318</ele>
        <time>2020-12-05T18:25:47Z</time>
      </trkpt>
      <trkpt lat="43.45771" lon="5.44224">
        <ele>314</ele>
        <time>2020-12-05T18:25:56Z</time>
      </trkpt>
      <trkpt lat="43.45783" lon="5.44231">
        <ele>313</ele>
        <time>2020-12-05T18:25:59Z</time>
      </trkpt>
      <trkpt lat="43.45799" lon="5.44247">
        <ele>311</ele>
        <time>2020-12-05T18:26:04Z</time>
      </trkpt>
      <trkpt lat="43.4582" lon="5.44256">
        <ele>308</ele>
        <time>2020-12-05T18:26:09Z</time>
      </trkpt>
      <trkpt lat="43.45831" lon="5.44258">
        <ele>307</ele>
        <time>2020-12-05T18:26:12Z</time>
      </trkpt>
      <trkpt lat="43.45845" lon="5.44271">
        <ele>305</ele>
        <time>2020-12-05T18:26:15Z</time>
      </trkpt>
      <trkpt lat="43.45849" lon="5.44272">
        <ele>305</ele>
        <time>2020-12-05T18:26:16Z</time>
      </trkpt>
      <trkpt lat="43.45863" lon="5.44268">
        <ele>304</ele>
        <time>2020-12-05T18:26:20Z</time>
      </trkpt>
      <trkpt lat="43.45882" lon="5.44271">
        <ele>302</ele>
        <time>2020-12-05T18:26:24Z</time>
      </trkpt>
      <trkpt lat="43.45891" lon="5.44281">
        <ele>300</ele>
        <time>2020-12-05T18:26:27Z</time>
      </trkpt>
      <trkpt lat="43.4589" lon="5.44292">
        <ele>300</ele>
        <time>2020-12-05T18:26:29Z</time>
      </trkpt>
      <trkpt lat="43.45899" lon="5.44327">
        <ele>297</ele>
        <time>2020-12-05T18:26:35Z</time>
      </trkpt>
      <trkpt lat="43.459" lon="5.44342">
        <ele>295</ele>
        <time>2020-12-05T18:26:38Z</time>
      </trkpt>
      <trkpt lat="43.45909" lon="5.4436">
        <ele>293</ele>
        <time>2020-12-05T18:26:41Z</time>
      </trkpt>
      <trkpt lat="43.45908" lon="5.44367">
        <ele>292</ele>
        <time>2020-12-05T18:26:43Z</time>
      </trkpt>
      <trkpt lat="43.45914" lon="5.44379">
        <ele>290</ele>
        <time>2020-12-05T18:26:45Z</time>
      </trkpt>
      <trkpt lat="43.45916" lon="5.44389">
        <ele>289</ele>
        <time>2020-12-05T18:26:47Z</time>
      </trkpt>
      <trkpt lat="43.45914" lon="5.44447">
        <ele>288</ele>
        <time>2020-12-05T18:26:57Z</time>
      </trkpt>
      <trkpt lat="43.45915" lon="5.44458">
        <ele>288</ele>
        <time>2020-12-05T18:26:59Z</time>
      </trkpt>
      <trkpt lat="43.45921" lon="5.44464">
        <ele>288</ele>
        <time>2020-12-05T18:27:00Z</time>
      </trkpt>
      <trkpt lat="43.45952" lon="5.44433">
        <ele>286</ele>
        <time>2020-12-05T18:27:09Z</time>
      </trkpt>
      <trkpt lat="43.46011" lon="5.44362">
        <ele>284</ele>
        <time>2020-12-05T18:27:28Z</time>
      </trkpt>
      <trkpt lat="43.46019" lon="5.44355">
        <ele>283</ele>
        <time>2020-12-05T18:27:30Z</time>
      </trkpt>
      <trkpt lat="43.46026" lon="5.44353">
        <ele>283</ele>
        <time>2020-12-05T18:27:31Z</time>
      </trkpt>
      <trkpt lat="43.46046" lon="5.44369">
        <ele>281</ele>
        <time>2020-12-05T18:27:37Z</time>
      </trkpt>
      <trkpt lat="43.46072" lon="5.44368">
        <ele>280</ele>
        <time>2020-12-05T18:27:43Z</time>
      </trkpt>
      <trkpt lat="43.46081" lon="5.4437">
        <ele>279</ele>
        <time>2020-12-05T18:27:45Z</time>
      </trkpt>
      <trkpt lat="43.46095" lon="5.44368">
        <ele>278</ele>
        <time>2020-12-05T18:27:48Z</time>
      </trkpt>
      <trkpt lat="43.46131" lon="5.44337">
        <ele>272</ele>
        <time>2020-12-05T18:27:58Z</time>
      </trkpt>
      <trkpt lat="43.46145" lon="5.44334">
        <ele>270</ele>
        <time>2020-12-05T18:28:01Z</time>
      </trkpt>
      <trkpt lat="43.46148" lon="5.44319">
        <ele>272</ele>
        <time>2020-12-05T18:28:04Z</time>
      </trkpt>
      <trkpt lat="43.46184" lon="5.44309">
        <ele>270</ele>
        <time>2020-12-05T18:28:13Z</time>
      </trkpt>
      <trkpt lat="43.4621" lon="5.44309">
        <ele>268</ele>
        <time>2020-12-05T18:28:19Z</time>
      </trkpt>
      <trkpt lat="43.46238" lon="5.44328">
        <ele>262</ele>
        <time>2020-12-05T18:28:26Z</time>
      </trkpt>
      <trkpt lat="43.46247" lon="5.44346">
        <ele>259</ele>
        <time>2020-12-05T18:28:30Z</time>
      </trkpt>
      <trkpt lat="43.46261" lon="5.44354">
        <ele>257</ele>
        <time>2020-12-05T18:28:33Z</time>
      </trkpt>
      <trkpt lat="43.4627" lon="5.44353">
        <ele>256</ele>
        <time>2020-12-05T18:28:35Z</time>
      </trkpt>
      <trkpt lat="43.4629" lon="5.44359">
        <ele>253</ele>
        <time>2020-12-05T18:28:40Z</time>
      </trkpt>
      <trkpt lat="43.46305" lon="5.44369">
        <ele>249</ele>
        <time>2020-12-05T18:28:44Z</time>
      </trkpt>
      <trkpt lat="43.46323" lon="5.44386">
        <ele>244</ele>
        <time>2020-12-05T18:28:49Z</time>
      </trkpt>
      <trkpt lat="43.46358" lon="5.44392">
        <ele>240</ele>
        <time>2020-12-05T18:28:57Z</time>
      </trkpt>
      <trkpt lat="43.46386" lon="5.44381">
        <ele>240</ele>
        <time>2020-12-05T18:29:04Z</time>
      </trkpt>
      <trkpt lat="43.46411" lon="5.44365">
        <ele>240</ele>
        <time>2020-12-05T18:29:11Z</time>
      </trkpt>
      <trkpt lat="43.46431" lon="5.44368">
        <ele>237</ele>
        <time>2020-12-05T18:29:15Z</time>
      </trkpt>
      <trkpt lat="43.46451" lon="5.44352">
        <ele>236</ele>
        <time>2020-12-05T18:29:21Z</time>
      </trkpt>
      <trkpt lat="43.46476" lon="5.44325">
        <ele>237</ele>
        <time>2020-12-05T18:29:28Z</time>
      </trkpt>
      <trkpt lat="43.46493" lon="5.44324">
        <ele>234</ele>
        <time>2020-12-05T18:29:32Z</time>
      </trkpt>
      <trkpt lat="43.46506" lon="5.4433">
        <ele>230</ele>
        <time>2020-12-05T18:29:35Z</time>
      </trkpt>
      <trkpt lat="43.46534" lon="5.44316">
        <ele>227</ele>
        <time>2020-12-05T18:29:42Z</time>
      </trkpt>
      <trkpt lat="43.46582" lon="5.44268">
        <ele>221</ele>
        <time>2020-12-05T18:29:56Z</time>
      </trkpt>
      <trkpt lat="43.46593" lon="5.44272">
        <ele>219</ele>
        <time>2020-12-05T18:29:59Z</time>
      </trkpt>
      <trkpt lat="43.4659" lon="5.443">
        <ele>217</ele>
        <time>2020-12-05T18:30:04Z</time>
      </trkpt>
      <trkpt lat="43.46594" lon="5.44303">
        <ele>216</ele>
        <time>2020-12-05T18:30:05Z</time>
      </trkpt>
      <trkpt lat="43.46604" lon="5.44297">
        <ele>215</ele>
        <time>2020-12-05T18:30:07Z</time>
      </trkpt>
      <trkpt lat="43.46618" lon="5.44294">
        <ele>213</ele>
        <time>2020-12-05T18:30:11Z</time>
      </trkpt>
      <trkpt lat="43.46653" lon="5.44278">
        <ele>210</ele>
        <time>2020-12-05T18:30:19Z</time>
      </trkpt>
      <trkpt lat="43.46664" lon="5.4426">
        <ele>210</ele>
        <time>2020-12-05T18:30:23Z</time>
      </trkpt>
      <trkpt lat="43.46678" lon="5.44246">
        <ele>210</ele>
        <time>2020-12-05T18:30:27Z</time>
      </trkpt>
      <trkpt lat="43.46684" lon="5.44233">
        <ele>211</ele>
        <time>2020-12-05T18:30:30Z</time>
      </trkpt>
      <trkpt lat="43.46696" lon="5.44224">
        <ele>210</ele>
        <time>2020-12-05T18:30:33Z</time>
      </trkpt>
      <trkpt lat="43.46732" lon="5.44185">
        <ele>207</ele>
        <time>2020-12-05T18:30:44Z</time>
      </trkpt>
      <trkpt lat="43.4677" lon="5.44164">
        <ele>203</ele>
        <time>2020-12-05T18:30:53Z</time>
      </trkpt>
      <trkpt lat="43.46799" lon="5.44133">
        <ele>206</ele>
        <time>2020-12-05T18:31:02Z</time>
      </trkpt>
      <trkpt lat="43.46855" lon="5.441">
        <ele>204</ele>
        <time>2020-12-05T18:31:16Z</time>
      </trkpt>
      <trkpt lat="43.46869" lon="5.44105">
        <ele>201</ele>
        <time>2020-12-05T18:31:19Z</time>
      </trkpt>
      <trkpt lat="43.46886" lon="5.44099">
        <ele>198</ele>
        <time>2020-12-05T18:31:24Z</time>
      </trkpt>
      <trkpt lat="43.469" lon="5.44089">
        <ele>197</ele>
        <time>2020-12-05T18:31:27Z</time>
      </trkpt>
      <trkpt lat="43.46902" lon="5.44089">
        <ele>197</ele>
        <time>2020-12-05T18:31:28Z</time>
      </trkpt>
      <trkpt lat="43.46905" lon="5.44097">
        <ele>195</ele>
        <time>2020-12-05T18:31:29Z</time>
      </trkpt>
      <trkpt lat="43.4692" lon="5.44093">
        <ele>193</ele>
        <time>2020-12-05T18:31:33Z</time>
      </trkpt>
      <trkpt lat="43.46961" lon="5.44072">
        <ele>192</ele>
        <time>2020-12-05T18:31:43Z</time>
      </trkpt>
      <trkpt lat="43.46993" lon="5.44049">
        <ele>195</ele>
        <time>2020-12-05T18:31:51Z</time>
      </trkpt>
      <trkpt lat="43.47016" lon="5.44029">
        <ele>197</ele>
        <time>2020-12-05T18:31:58Z</time>
      </trkpt>
      <trkpt lat="43.47037" lon="5.44017">
        <ele>196</ele>
        <time>2020-12-05T18:32:03Z</time>
      </trkpt>
      <trkpt lat="43.47046" lon="5.4402">
        <ele>194</ele>
        <time>2020-12-05T18:32:05Z</time>
      </trkpt>
      <trkpt lat="43.47069" lon="5.44011">
        <ele>191</ele>
        <time>2020-12-05T18:32:11Z</time>
      </trkpt>
      <trkpt lat="43.47079" lon="5.44017">
        <ele>189</ele>
        <time>2020-12-05T18:32:13Z</time>
      </trkpt>
      <trkpt lat="43.47087" lon="5.44017">
        <ele>188</ele>
        <time>2020-12-05T18:32:15Z</time>
      </trkpt>
      <trkpt lat="43.47132" lon="5.43988">
        <ele>185</ele>
        <time>2020-12-05T18:32:27Z</time>
      </trkpt>
      <trkpt lat="43.47136" lon="5.43993">
        <ele>184</ele>
        <time>2020-12-05T18:32:28Z</time>
      </trkpt>
      <trkpt lat="43.47137" lon="5.44006">
        <ele>183</ele>
        <time>2020-12-05T18:32:30Z</time>
      </trkpt>
      <trkpt lat="43.4713" lon="5.44064">
        <ele>181</ele>
        <time>2020-12-05T18:32:40Z</time>
      </trkpt>
      <trkpt lat="43.47105" lon="5.4412">
        <ele>183</ele>
        <time>2020-12-05T18:32:51Z</time>
      </trkpt>
      <trkpt lat="43.47089" lon="5.44174">
        <ele>188</ele>
        <time>2020-12-05T18:33:01Z</time>
      </trkpt>
      <trkpt lat="43.47061" lon="5.44208">
        <ele>191</ele>
        <time>2020-12-05T18:33:10Z</time>
      </trkpt>
      <trkpt lat="43.47054" lon="5.44225">
        <ele>193</ele>
        <time>2020-12-05T18:33:13Z</time>
      </trkpt>
      <trkpt lat="43.47053" lon="5.44289">
        <ele>198</ele>
        <time>2020-12-05T18:33:24Z</time>
      </trkpt>
      <trkpt lat="43.47025" lon="5.44332">
        <ele>203</ele>
        <time>2020-12-05T18:33:34Z</time>
      </trkpt>
      <trkpt lat="43.47019" lon="5.44347">
        <ele>204</ele>
        <time>2020-12-05T18:33:37Z</time>
      </trkpt>
      <trkpt lat="43.47011" lon="5.44356">
        <ele>206</ele>
        <time>2020-12-05T18:33:39Z</time>
      </trkpt>
      <trkpt lat="43.47011" lon="5.44361">
        <ele>206</ele>
        <time>2020-12-05T18:33:40Z</time>
      </trkpt>
      <trkpt lat="43.47" lon="5.44379">
        <ele>210</ele>
        <time>2020-12-05T18:33:44Z</time>
      </trkpt>
      <trkpt lat="43.46992" lon="5.44385">
        <ele>211</ele>
        <time>2020-12-05T18:33:46Z</time>
      </trkpt>
      <trkpt lat="43.46966" lon="5.44425">
        <ele>215</ele>
        <time>2020-12-05T18:33:55Z</time>
      </trkpt>
      <trkpt lat="43.46905" lon="5.44452">
        <ele>218</ele>
        <time>2020-12-05T18:34:10Z</time>
      </trkpt>
      <trkpt lat="43.46886" lon="5.44443">
        <ele>216</ele>
        <time>2020-12-05T18:34:15Z</time>
      </trkpt>
      <trkpt lat="43.46877" lon="5.44451">
        <ele>216</ele>
        <time>2020-12-05T18:34:17Z</time>
      </trkpt>
      <trkpt lat="43.4687" lon="5.44463">
        <ele>217</ele>
        <time>2020-12-05T18:34:20Z</time>
      </trkpt>
      <trkpt lat="43.46863" lon="5.44503">
        <ele>222</ele>
        <time>2020-12-05T18:34:27Z</time>
      </trkpt>
      <trkpt lat="43.46851" lon="5.4452">
        <ele>224</ele>
        <time>2020-12-05T18:34:31Z</time>
      </trkpt>
      <trkpt lat="43.46839" lon="5.44547">
        <ele>227</ele>
        <time>2020-12-05T18:34:36Z</time>
      </trkpt>
      <trkpt lat="43.46831" lon="5.44558">
        <ele>229</ele>
        <time>2020-12-05T18:34:39Z</time>
      </trkpt>
      <trkpt lat="43.46819" lon="5.44559">
        <ele>230</ele>
        <time>2020-12-05T18:34:42Z</time>
      </trkpt>
      <trkpt lat="43.46814" lon="5.44563">
        <ele>230</ele>
        <time>2020-12-05T18:34:43Z</time>
      </trkpt>
      <trkpt lat="43.46804" lon="5.4458">
        <ele>233</ele>
        <time>2020-12-05T18:34:47Z</time>
      </trkpt>
      <trkpt lat="43.46777" lon="5.44604">
        <ele>237</ele>
        <time>2020-12-05T18:34:54Z</time>
      </trkpt>
      <trkpt lat="43.46774" lon="5.44614">
        <ele>238</ele>
        <time>2020-12-05T18:34:56Z</time>
      </trkpt>
      <trkpt lat="43.46777" lon="5.44633">
        <ele>241</ele>
        <time>2020-12-05T18:35:00Z</time>
      </trkpt>
      <trkpt lat="43.46786" lon="5.4465">
        <ele>243</ele>
        <time>2020-12-05T18:35:03Z</time>
      </trkpt>
      <trkpt lat="43.46782" lon="5.44662">
        <ele>245</ele>
        <time>2020-12-05T18:35:05Z</time>
      </trkpt>
      <trkpt lat="43.46765" lon="5.44689">
        <ele>249</ele>
        <time>2020-12-05T18:35:11Z</time>
      </trkpt>
      <trkpt lat="43.46765" lon="5.44697">
        <ele>250</ele>
        <time>2020-12-05T18:35:13Z</time>
      </trkpt>
      <trkpt lat="43.46766" lon="5.447">
        <ele>250</ele>
        <time>2020-12-05T18:35:13Z</time>
      </trkpt>
      <trkpt lat="43.46775" lon="5.44703">
        <ele>249</ele>
        <time>2020-12-05T18:35:16Z</time>
      </trkpt>
      <trkpt lat="43.46783" lon="5.44689">
        <ele>247</ele>
        <time>2020-12-05T18:35:19Z</time>
      </trkpt>
      <trkpt lat="43.46804" lon="5.44662">
        <ele>244</ele>
        <time>2020-12-05T18:35:25Z</time>
      </trkpt>
      <trkpt lat="43.46823" lon="5.44675">
        <ele>244</ele>
        <time>2020-12-05T18:35:30Z</time>
      </trkpt>
      <trkpt lat="43.46829" lon="5.44676">
        <ele>243</ele>
        <time>2020-12-05T18:35:32Z</time>
      </trkpt>
      <trkpt lat="43.46838" lon="5.4469">
        <ele>242</ele>
        <time>2020-12-05T18:35:35Z</time>
      </trkpt>
      <trkpt lat="43.46854" lon="5.44703">
        <ele>236</ele>
        <time>2020-12-05T18:35:39Z</time>
      </trkpt>
      <trkpt lat="43.46857" lon="5.44712">
        <ele>235</ele>
        <time>2020-12-05T18:35:41Z</time>
      </trkpt>
      <trkpt lat="43.46867" lon="5.44704">
        <ele>232</ele>
        <time>2020-12-05T18:35:44Z</time>
      </trkpt>
      <trkpt lat="43.46872" lon="5.44706">
        <ele>231</ele>
        <time>2020-12-05T18:35:45Z</time>
      </trkpt>
      <trkpt lat="43.46871" lon="5.44714">
        <ele>231</ele>
        <time>2020-12-05T18:35:46Z</time>
      </trkpt>
      <trkpt lat="43.46883" lon="5.44715">
        <ele>227</ele>
        <time>2020-12-05T18:35:49Z</time>
      </trkpt>
      <trkpt lat="43.46886" lon="5.44703">
        <ele>226</ele>
        <time>2020-12-05T18:35:51Z</time>
      </trkpt>
      <trkpt lat="43.46883" lon="5.44695">
        <ele>227</ele>
        <time>2020-12-05T18:35:53Z</time>
      </trkpt>
      <trkpt lat="43.46885" lon="5.44691">
        <ele>227</ele>
        <time>2020-12-05T18:35:53Z</time>
      </trkpt>
      <trkpt lat="43.46887" lon="5.44693">
        <ele>226</ele>
        <time>2020-12-05T18:35:54Z</time>
      </trkpt>
      <trkpt lat="43.4691" lon="5.44695">
        <ele>219</ele>
        <time>2020-12-05T18:35:59Z</time>
      </trkpt>
      <trkpt lat="43.46921" lon="5.44707">
        <ele>215</ele>
        <time>2020-12-05T18:36:03Z</time>
      </trkpt>
      <trkpt lat="43.46937" lon="5.44698">
        <ele>211</ele>
        <time>2020-12-05T18:36:07Z</time>
      </trkpt>
      <trkpt lat="43.46971" lon="5.44644">
        <ele>205</ele>
        <time>2020-12-05T18:36:19Z</time>
      </trkpt>
      <trkpt lat="43.46967" lon="5.44665">
        <ele>205</ele>
        <time>2020-12-05T18:36:22Z</time>
      </trkpt>
      <trkpt lat="43.46973" lon="5.44691">
        <ele>202</ele>
        <time>2020-12-05T18:36:27Z</time>
      </trkpt>
      <trkpt lat="43.46972" lon="5.44731">
        <ele>199</ele>
        <time>2020-12-05T18:36:34Z</time>
      </trkpt>
      <trkpt lat="43.46964" lon="5.44752">
        <ele>200</ele>
        <time>2020-12-05T18:36:38Z</time>
      </trkpt>
      <trkpt lat="43.4695" lon="5.44773">
        <ele>201</ele>
        <time>2020-12-05T18:36:43Z</time>
      </trkpt>
      <trkpt lat="43.46939" lon="5.44797">
        <ele>201</ele>
        <time>2020-12-05T18:36:48Z</time>
      </trkpt>
      <trkpt lat="43.46913" lon="5.44872">
        <ele>197</ele>
        <time>2020-12-05T18:37:02Z</time>
      </trkpt>
      <trkpt lat="43.46908" lon="5.44906">
        <ele>194</ele>
        <time>2020-12-05T18:37:08Z</time>
      </trkpt>
      <trkpt lat="43.46912" lon="5.44921">
        <ele>191</ele>
        <time>2020-12-05T18:37:10Z</time>
      </trkpt>
      <trkpt lat="43.46909" lon="5.44943">
        <ele>191</ele>
        <time>2020-12-05T18:37:14Z</time>
      </trkpt>
      <trkpt lat="43.46901" lon="5.44956">
        <ele>192</ele>
        <time>2020-12-05T18:37:17Z</time>
      </trkpt>
      <trkpt lat="43.46894" lon="5.44979">
        <ele>192</ele>
        <time>2020-12-05T18:37:21Z</time>
      </trkpt>
      <trkpt lat="43.46895" lon="5.45001">
        <ele>190</ele>
        <time>2020-12-05T18:37:25Z</time>
      </trkpt>
      <trkpt lat="43.46903" lon="5.45015">
        <ele>188</ele>
        <time>2020-12-05T18:37:28Z</time>
      </trkpt>
      <trkpt lat="43.46909" lon="5.4501">
        <ele>187</ele>
        <time>2020-12-05T18:37:30Z</time>
      </trkpt>
      <trkpt lat="43.46915" lon="5.44993">
        <ele>187</ele>
        <time>2020-12-05T18:37:33Z</time>
      </trkpt>
      <trkpt lat="43.46928" lon="5.44987">
        <ele>186</ele>
        <time>2020-12-05T18:37:36Z</time>
      </trkpt>
      <trkpt lat="43.46939" lon="5.44988">
        <ele>185</ele>
        <time>2020-12-05T18:37:39Z</time>
      </trkpt>
      <trkpt lat="43.46952" lon="5.45039">
        <ele>184</ele>
        <time>2020-12-05T18:37:48Z</time>
      </trkpt>
      <trkpt lat="43.46955" lon="5.45063">
        <ele>183</ele>
        <time>2020-12-05T18:37:52Z</time>
      </trkpt>
      <trkpt lat="43.46964" lon="5.45081">
        <ele>183</ele>
        <time>2020-12-05T18:37:56Z</time>
      </trkpt>
      <trkpt lat="43.4697" lon="5.4508">
        <ele>183</ele>
        <time>2020-12-05T18:37:57Z</time>
      </trkpt>
      <trkpt lat="43.46983" lon="5.45069">
        <ele>183</ele>
        <time>2020-12-05T18:38:00Z</time>
      </trkpt>
      <trkpt lat="43.47014" lon="5.4505">
        <ele>182</ele>
        <time>2020-12-05T18:38:08Z</time>
      </trkpt>
      <trkpt lat="43.47032" lon="5.45053">
        <ele>182</ele>
        <time>2020-12-05T18:38:13Z</time>
      </trkpt>
      <trkpt lat="43.47061" lon="5.45076">
        <ele>183</ele>
        <time>2020-12-05T18:38:20Z</time>
      </trkpt>
      <trkpt lat="43.47073" lon="5.45089">
        <ele>183</ele>
        <time>2020-12-05T18:38:24Z</time>
      </trkpt>
      <trkpt lat="43.47082" lon="5.45112">
        <ele>184</ele>
        <time>2020-12-05T18:38:28Z</time>
      </trkpt>
      <trkpt lat="43.471" lon="5.45116">
        <ele>185</ele>
        <time>2020-12-05T18:38:33Z</time>
      </trkpt>
      <trkpt lat="43.47116" lon="5.45126">
        <ele>186</ele>
        <time>2020-12-05T18:38:37Z</time>
      </trkpt>
      <trkpt lat="43.47141" lon="5.45166">
        <ele>187</ele>
        <time>2020-12-05T18:38:46Z</time>
      </trkpt>
      <trkpt lat="43.47168" lon="5.45222">
        <ele>191</ele>
        <time>2020-12-05T18:38:57Z</time>
      </trkpt>
      <trkpt lat="43.47188" lon="5.45289">
        <ele>195</ele>
        <time>2020-12-05T18:39:09Z</time>
      </trkpt>
      <trkpt lat="43.47193" lon="5.45322">
        <ele>197</ele>
        <time>2020-12-05T18:39:15Z</time>
      </trkpt>
      <trkpt lat="43.47199" lon="5.45338">
        <ele>198</ele>
        <time>2020-12-05T18:39:18Z</time>
      </trkpt>
      <trkpt lat="43.47206" lon="5.45349">
        <ele>200</ele>
        <time>2020-12-05T18:39:21Z</time>
      </trkpt>
      <trkpt lat="43.47219" lon="5.45354">
        <ele>200</ele>
        <time>2020-12-05T18:39:24Z</time>
      </trkpt>
      <trkpt lat="43.47228" lon="5.45354">
        <ele>201</ele>
        <time>2020-12-05T18:39:26Z</time>
      </trkpt>
      <trkpt lat="43.47249" lon="5.45345">
        <ele>200</ele>
        <time>2020-12-05T18:39:31Z</time>
      </trkpt>
      <trkpt lat="43.47263" lon="5.45349">
        <ele>201</ele>
        <time>2020-12-05T18:39:34Z</time>
      </trkpt>
      <trkpt lat="43.47304" lon="5.4539">
        <ele>207</ele>
        <time>2020-12-05T18:39:46Z</time>
      </trkpt>
      <trkpt lat="43.47343" lon="5.45465">
        <ele>209</ele>
        <time>2020-12-05T18:40:02Z</time>
      </trkpt>
      <trkpt lat="43.47365" lon="5.45524">
        <ele>211</ele>
        <time>2020-12-05T18:40:13Z</time>
      </trkpt>
      <trkpt lat="43.47378" lon="5.45534">
        <ele>211</ele>
        <time>2020-12-05T18:40:17Z</time>
      </trkpt>
      <trkpt lat="43.47383" lon="5.45533">
        <ele>210</ele>
        <time>2020-12-05T18:40:18Z</time>
      </trkpt>
      <trkpt lat="43.47401" lon="5.45518">
        <ele>208</ele>
        <time>2020-12-05T18:40:23Z</time>
      </trkpt>
      <trkpt lat="43.47437" lon="5.45482">
        <ele>207</ele>
        <time>2020-12-05T18:40:33Z</time>
      </trkpt>
      <trkpt lat="43.47454" lon="5.4546">
        <ele>209</ele>
        <time>2020-12-05T18:40:39Z</time>
      </trkpt>
      <trkpt lat="43.47462" lon="5.45455">
        <ele>210</ele>
        <time>2020-12-05T18:40:41Z</time>
      </trkpt>
      <trkpt lat="43.47474" lon="5.45441">
        <ele>211</ele>
        <time>2020-12-05T18:40:44Z</time>
      </trkpt>
      <trkpt lat="43.47513" lon="5.45407">
        <ele>216</ele>
        <time>2020-12-05T18:40:55Z</time>
      </trkpt>
      <trkpt lat="43.4755" lon="5.45391">
        <ele>225</ele>
        <time>2020-12-05T18:41:04Z</time>
      </trkpt>
      <trkpt lat="43.47564" lon="5.4539">
        <ele>228</ele>
        <time>2020-12-05T18:41:07Z</time>
      </trkpt>
      <trkpt lat="43.47577" lon="5.45386">
        <ele>231</ele>
        <time>2020-12-05T18:41:10Z</time>
      </trkpt>
      <trkpt lat="43.47579" lon="5.45381">
        <ele>232</ele>
        <time>2020-12-05T18:41:11Z</time>
      </trkpt>
      <trkpt lat="43.47577" lon="5.45367">
        <ele>234</ele>
        <time>2020-12-05T18:41:14Z</time>
      </trkpt>
      <trkpt lat="43.47538" lon="5.45337">
        <ele>229</ele>
        <time>2020-12-05T18:41:24Z</time>
      </trkpt>
      <trkpt lat="43.4752" lon="5.45311">
        <ele>227</ele>
        <time>2020-12-05T18:41:30Z</time>
      </trkpt>
      <trkpt lat="43.47519" lon="5.45303">
        <ele>228</ele>
        <time>2020-12-05T18:41:32Z</time>
      </trkpt>
      <trkpt lat="43.47524" lon="5.45293">
        <ele>230</ele>
        <time>2020-12-05T18:41:34Z</time>
      </trkpt>
      <trkpt lat="43.47528" lon="5.45292">
        <ele>232</ele>
        <time>2020-12-05T18:41:35Z</time>
      </trkpt>
      <trkpt lat="43.47548" lon="5.45316">
        <ele>235</ele>
        <time>2020-12-05T18:41:41Z</time>
      </trkpt>
      <trkpt lat="43.47553" lon="5.45319">
        <ele>236</ele>
        <time>2020-12-05T18:41:42Z</time>
      </trkpt>
      <trkpt lat="43.47573" lon="5.45323">
        <ele>241</ele>
        <time>2020-12-05T18:41:47Z</time>
      </trkpt>
      <trkpt lat="43.4759" lon="5.45314">
        <ele>246</ele>
        <time>2020-12-05T18:41:51Z</time>
      </trkpt>
      <trkpt lat="43.47622" lon="5.45303">
        <ele>252</ele>
        <time>2020-12-05T18:41:59Z</time>
      </trkpt>
      <trkpt lat="43.47629" lon="5.45304">
        <ele>252</ele>
        <time>2020-12-05T18:42:01Z</time>
      </trkpt>
      <trkpt lat="43.47655" lon="5.45292">
        <ele>257</ele>
        <time>2020-12-05T18:42:07Z</time>
      </trkpt>
      <trkpt lat="43.47666" lon="5.45284">
        <ele>260</ele>
        <time>2020-12-05T18:42:10Z</time>
      </trkpt>
      <trkpt lat="43.47711" lon="5.45236">
        <ele>268</ele>
        <time>2020-12-05T18:42:23Z</time>
      </trkpt>
      <trkpt lat="43.47743" lon="5.45194">
        <ele>270</ele>
        <time>2020-12-05T18:42:33Z</time>
      </trkpt>
      <trkpt lat="43.4776" lon="5.4516">
        <ele>274</ele>
        <time>2020-12-05T18:42:40Z</time>
      </trkpt>
      <trkpt lat="43.47776" lon="5.45138">
        <ele>279</ele>
        <time>2020-12-05T18:42:46Z</time>
      </trkpt>
      <trkpt lat="43.4779" lon="5.45107">
        <ele>284</ele>
        <time>2020-12-05T18:42:52Z</time>
      </trkpt>
      <trkpt lat="43.47803" lon="5.45088">
        <ele>287</ele>
        <time>2020-12-05T18:42:56Z</time>
      </trkpt>
      <trkpt lat="43.4781" lon="5.45063">
        <ele>288</ele>
        <time>2020-12-05T18:43:01Z</time>
      </trkpt>
      <trkpt lat="43.47808" lon="5.45041">
        <ele>289</ele>
        <time>2020-12-05T18:43:05Z</time>
      </trkpt>
      <trkpt lat="43.47801" lon="5.45016">
        <ele>289</ele>
        <time>2020-12-05T18:43:09Z</time>
      </trkpt>
      <trkpt lat="43.47802" lon="5.45011">
        <ele>289</ele>
        <time>2020-12-05T18:43:10Z</time>
      </trkpt>
      <trkpt lat="43.47808" lon="5.45011">
        <ele>289</ele>
        <time>2020-12-05T18:43:11Z</time>
      </trkpt>
      <trkpt lat="43.47817" lon="5.4502">
        <ele>288</ele>
        <time>2020-12-05T18:43:14Z</time>
      </trkpt>
      <trkpt lat="43.47832" lon="5.45045">
        <ele>289</ele>
        <time>2020-12-05T18:43:20Z</time>
      </trkpt>
      <trkpt lat="43.47839" lon="5.45067">
        <ele>290</ele>
        <time>2020-12-05T18:43:24Z</time>
      </trkpt>
      <trkpt lat="43.47857" lon="5.45089">
        <ele>293</ele>
        <time>2020-12-05T18:43:29Z</time>
      </trkpt>
      <trkpt lat="43.47869" lon="5.45099">
        <ele>294</ele>
        <time>2020-12-05T18:43:33Z</time>
      </trkpt>
      <trkpt lat="43.47876" lon="5.4511">
        <ele>295</ele>
        <time>2020-12-05T18:43:35Z</time>
      </trkpt>
      <trkpt lat="43.47907" lon="5.45137">
        <ele>301</ele>
        <time>2020-12-05T18:43:44Z</time>
      </trkpt>
      <trkpt lat="43.47933" lon="5.45164">
        <ele>306</ele>
        <time>2020-12-05T18:43:51Z</time>
      </trkpt>
      <trkpt lat="43.47976" lon="5.45217">
        <ele>305</ele>
        <time>2020-12-05T18:44:05Z</time>
      </trkpt>
      <trkpt lat="43.48025" lon="5.45261">
        <ele>306</ele>
        <time>2020-12-05T18:44:18Z</time>
      </trkpt>
      <trkpt lat="43.48049" lon="5.45275">
        <ele>306</ele>
        <time>2020-12-05T18:44:24Z</time>
      </trkpt>
      <trkpt lat="43.48074" lon="5.45284">
        <ele>307</ele>
        <time>2020-12-05T18:44:30Z</time>
      </trkpt>
      <trkpt lat="43.48106" lon="5.45307">
        <ele>309</ele>
        <time>2020-12-05T18:44:39Z</time>
      </trkpt>
      <trkpt lat="43.48118" lon="5.45308">
        <ele>310</ele>
        <time>2020-12-05T18:44:42Z</time>
      </trkpt>
      <trkpt lat="43.48143" lon="5.45301">
        <ele>312</ele>
        <time>2020-12-05T18:44:48Z</time>
      </trkpt>
      <trkpt lat="43.48157" lon="5.45288">
        <ele>313</ele>
        <time>2020-12-05T18:44:52Z</time>
      </trkpt>
      <trkpt lat="43.48192" lon="5.45247">
        <ele>314</ele>
        <time>2020-12-05T18:45:02Z</time>
      </trkpt>
      <trkpt lat="43.482" lon="5.45236">
        <ele>315</ele>
        <time>2020-12-05T18:45:05Z</time>
      </trkpt>
      <trkpt lat="43.48211" lon="5.45213">
        <ele>315</ele>
        <time>2020-12-05T18:45:10Z</time>
      </trkpt>
      <trkpt lat="43.48238" lon="5.45082">
        <ele>315</ele>
        <time>2020-12-05T18:45:33Z</time>
      </trkpt>
      <trkpt lat="43.48241" lon="5.4505">
        <ele>314</ele>
        <time>2020-12-05T18:45:38Z</time>
      </trkpt>
      <trkpt lat="43.48255" lon="5.44971">
        <ele>312</ele>
        <time>2020-12-05T18:45:52Z</time>
      </trkpt>
      <trkpt lat="43.48252" lon="5.44853">
        <ele>309</ele>
        <time>2020-12-05T18:46:12Z</time>
      </trkpt>
      <trkpt lat="43.48282" lon="5.4482">
        <ele>309</ele>
        <time>2020-12-05T18:46:21Z</time>
      </trkpt>
      <trkpt lat="43.48306" lon="5.44784">
        <ele>308</ele>
        <time>2020-12-05T18:46:29Z</time>
      </trkpt>
      <trkpt lat="43.4833" lon="5.44755">
        <ele>307</ele>
        <time>2020-12-05T18:46:37Z</time>
      </trkpt>
      <trkpt lat="43.48367" lon="5.44696">
        <ele>305</ele>
        <time>2020-12-05T18:46:50Z</time>
      </trkpt>
      <trkpt lat="43.48378" lon="5.44684">
        <ele>304</ele>
        <time>2020-12-05T18:46:53Z</time>
      </trkpt>
      <trkpt lat="43.48396" lon="5.44655">
        <ele>303</ele>
        <time>2020-12-05T18:47:00Z</time>
      </trkpt>
      <trkpt lat="43.48416" lon="5.44648">
        <ele>302</ele>
        <time>2020-12-05T18:47:04Z</time>
      </trkpt>
      <trkpt lat="43.48428" lon="5.44647">
        <ele>302</ele>
        <time>2020-12-05T18:47:07Z</time>
      </trkpt>
      <trkpt lat="43.48453" lon="5.44649">
        <ele>301</ele>
        <time>2020-12-05T18:47:13Z</time>
      </trkpt>
      <trkpt lat="43.48462" lon="5.44655">
        <ele>300</ele>
        <time>2020-12-05T18:47:15Z</time>
      </trkpt>
      <trkpt lat="43.48472" lon="5.44663">
        <ele>299</ele>
        <time>2020-12-05T18:47:18Z</time>
      </trkpt>
      <trkpt lat="43.48483" lon="5.44677">
        <ele>297</ele>
        <time>2020-12-05T18:47:22Z</time>
      </trkpt>
      <trkpt lat="43.48497" lon="5.44683">
        <ele>296</ele>
        <time>2020-12-05T18:47:25Z</time>
      </trkpt>
      <trkpt lat="43.48513" lon="5.44701">
        <ele>294</ele>
        <time>2020-12-05T18:47:30Z</time>
      </trkpt>
      <trkpt lat="43.48516" lon="5.44721">
        <ele>293</ele>
        <time>2020-12-05T18:47:33Z</time>
      </trkpt>
      <trkpt lat="43.48521" lon="5.4473">
        <ele>292</ele>
        <time>2020-12-05T18:47:35Z</time>
      </trkpt>
      <trkpt lat="43.4855" lon="5.44745">
        <ele>286</ele>
        <time>2020-12-05T18:47:42Z</time>
      </trkpt>
      <trkpt lat="43.48555" lon="5.44759">
        <ele>286</ele>
        <time>2020-12-05T18:47:45Z</time>
      </trkpt>
      <trkpt lat="43.48556" lon="5.4478">
        <ele>287</ele>
        <time>2020-12-05T18:47:49Z</time>
      </trkpt>
      <trkpt lat="43.48559" lon="5.44782">
        <ele>287</ele>
        <time>2020-12-05T18:47:49Z</time>
      </trkpt>
      <trkpt lat="43.48568" lon="5.44782">
        <ele>286</ele>
        <time>2020-12-05T18:47:52Z</time>
      </trkpt>
      <trkpt lat="43.48619" lon="5.44758">
        <ele>280</ele>
        <time>2020-12-05T18:48:04Z</time>
      </trkpt>
      <trkpt lat="43.48653" lon="5.44765">
        <ele>279</ele>
        <time>2020-12-05T18:48:12Z</time>
      </trkpt>
      <trkpt lat="43.48676" lon="5.44799">
        <ele>274</ele>
        <time>2020-12-05T18:48:20Z</time>
      </trkpt>
      <trkpt lat="43.487" lon="5.44814">
        <ele>270</ele>
        <time>2020-12-05T18:48:26Z</time>
      </trkpt>
      <trkpt lat="43.48722" lon="5.44835">
        <ele>264</ele>
        <time>2020-12-05T18:48:32Z</time>
      </trkpt>
      <trkpt lat="43.48732" lon="5.44841">
        <ele>263</ele>
        <time>2020-12-05T18:48:35Z</time>
      </trkpt>
      <trkpt lat="43.48767" lon="5.44851">
        <ele>260</ele>
        <time>2020-12-05T18:48:43Z</time>
      </trkpt>
      <trkpt lat="43.48772" lon="5.44855">
        <ele>260</ele>
        <time>2020-12-05T18:48:45Z</time>
      </trkpt>
      <trkpt lat="43.48772" lon="5.44876">
        <ele>260</ele>
        <time>2020-12-05T18:48:48Z</time>
      </trkpt>
      <trkpt lat="43.48778" lon="5.44899">
        <ele>261</ele>
        <time>2020-12-05T18:48:52Z</time>
      </trkpt>
      <trkpt lat="43.48771" lon="5.44912">
        <ele>262</ele>
        <time>2020-12-05T18:48:55Z</time>
      </trkpt>
      <trkpt lat="43.48767" lon="5.44927">
        <ele>262</ele>
        <time>2020-12-05T18:48:58Z</time>
      </trkpt>
      <trkpt lat="43.48766" lon="5.44948">
        <ele>264</ele>
        <time>2020-12-05T18:49:01Z</time>
      </trkpt>
      <trkpt lat="43.48754" lon="5.44956">
        <ele>264</ele>
        <time>2020-12-05T18:49:04Z</time>
      </trkpt>
      <trkpt lat="43.48748" lon="5.44966">
        <ele>264</ele>
        <time>2020-12-05T18:49:07Z</time>
      </trkpt>
      <trkpt lat="43.48735" lon="5.44978">
        <ele>267</ele>
        <time>2020-12-05T18:49:10Z</time>
      </trkpt>
      <trkpt lat="43.48719" lon="5.45">
        <ele>270</ele>
        <time>2020-12-05T18:49:16Z</time>
      </trkpt>
      <trkpt lat="43.48708" lon="5.45033">
        <ele>274</ele>
        <time>2020-12-05T18:49:22Z</time>
      </trkpt>
      <trkpt lat="43.48692" lon="5.45065">
        <ele>275</ele>
        <time>2020-12-05T18:49:28Z</time>
      </trkpt>
      <trkpt lat="43.48679" lon="5.45099">
        <ele>277</ele>
        <time>2020-12-05T18:49:35Z</time>
      </trkpt>
      <trkpt lat="43.48664" lon="5.45117">
        <ele>278</ele>
        <time>2020-12-05T18:49:40Z</time>
      </trkpt>
      <trkpt lat="43.48632" lon="5.4517">
        <ele>283</ele>
        <time>2020-12-05T18:49:51Z</time>
      </trkpt>
      <trkpt lat="43.48608" lon="5.45204">
        <ele>283</ele>
        <time>2020-12-05T18:49:59Z</time>
      </trkpt>
      <trkpt lat="43.48598" lon="5.45215">
        <ele>282</ele>
        <time>2020-12-05T18:50:02Z</time>
      </trkpt>
      <trkpt lat="43.48574" lon="5.45227">
        <ele>282</ele>
        <time>2020-12-05T18:50:08Z</time>
      </trkpt>
      <trkpt lat="43.48566" lon="5.45235">
        <ele>282</ele>
        <time>2020-12-05T18:50:10Z</time>
      </trkpt>
      <trkpt lat="43.48558" lon="5.45255">
        <ele>282</ele>
        <time>2020-12-05T18:50:14Z</time>
      </trkpt>
      <trkpt lat="43.48546" lon="5.45266">
        <ele>284</ele>
        <time>2020-12-05T18:50:18Z</time>
      </trkpt>
      <trkpt lat="43.48537" lon="5.4527">
        <ele>285</ele>
        <time>2020-12-05T18:50:20Z</time>
      </trkpt>
      <trkpt lat="43.48512" lon="5.45294">
        <ele>288</ele>
        <time>2020-12-05T18:50:27Z</time>
      </trkpt>
      <trkpt lat="43.48498" lon="5.45318">
        <ele>289</ele>
        <time>2020-12-05T18:50:32Z</time>
      </trkpt>
      <trkpt lat="43.48474" lon="5.45349">
        <ele>292</ele>
        <time>2020-12-05T18:50:40Z</time>
      </trkpt>
      <trkpt lat="43.48458" lon="5.45389">
        <ele>295</ele>
        <time>2020-12-05T18:50:48Z</time>
      </trkpt>
      <trkpt lat="43.48444" lon="5.45396">
        <ele>296</ele>
        <time>2020-12-05T18:50:51Z</time>
      </trkpt>
      <trkpt lat="43.48432" lon="5.45396">
        <ele>296</ele>
        <time>2020-12-05T18:50:54Z</time>
      </trkpt>
      <trkpt lat="43.48424" lon="5.45399">
        <ele>297</ele>
        <time>2020-12-05T18:50:56Z</time>
      </trkpt>
      <trkpt lat="43.48414" lon="5.45412">
        <ele>297</ele>
        <time>2020-12-05T18:50:59Z</time>
      </trkpt>
      <trkpt lat="43.48413" lon="5.45422">
        <ele>297</ele>
        <time>2020-12-05T18:51:01Z</time>
      </trkpt>
      <trkpt lat="43.48421" lon="5.45422">
        <ele>297</ele>
        <time>2020-12-05T18:51:03Z</time>
      </trkpt>
      <trkpt lat="43.48437" lon="5.45446">
        <ele>297</ele>
        <time>2020-12-05T18:51:08Z</time>
      </trkpt>
      <trkpt lat="43.48443" lon="5.4545">
        <ele>297</ele>
        <time>2020-12-05T18:51:10Z</time>
      </trkpt>
      <trkpt lat="43.48488" lon="5.45464">
        <ele>297</ele>
        <time>2020-12-05T18:51:21Z</time>
      </trkpt>
      <trkpt lat="43.48501" lon="5.4548">
        <ele>298</ele>
        <time>2020-12-05T18:51:25Z</time>
      </trkpt>
      <trkpt lat="43.48523" lon="5.45497">
        <ele>298</ele>
        <time>2020-12-05T18:51:31Z</time>
      </trkpt>
      <trkpt lat="43.48542" lon="5.45508">
        <ele>298</ele>
        <time>2020-12-05T18:51:35Z</time>
      </trkpt>
      <trkpt lat="43.48562" lon="5.45531">
        <ele>299</ele>
        <time>2020-12-05T18:51:41Z</time>
      </trkpt>
      <trkpt lat="43.48567" lon="5.45541">
        <ele>299</ele>
        <time>2020-12-05T18:51:43Z</time>
      </trkpt>
      <trkpt lat="43.48569" lon="5.45557">
        <ele>300</ele>
        <time>2020-12-05T18:51:46Z</time>
      </trkpt>
      <trkpt lat="43.48548" lon="5.45583">
        <ele>301</ele>
        <time>2020-12-05T18:51:53Z</time>
      </trkpt>
      <trkpt lat="43.48512" lon="5.45615">
        <ele>297</ele>
        <time>2020-12-05T18:52:03Z</time>
      </trkpt>
      <trkpt lat="43.48482" lon="5.45627">
        <ele>294</ele>
        <time>2020-12-05T18:52:10Z</time>
      </trkpt>
      <trkpt lat="43.48421" lon="5.45642">
        <ele>286</ele>
        <time>2020-12-05T18:52:25Z</time>
      </trkpt>
      <trkpt lat="43.48369" lon="5.45663">
        <ele>281</ele>
        <time>2020-12-05T18:52:37Z</time>
      </trkpt>
      <trkpt lat="43.48343" lon="5.45678">
        <ele>281</ele>
        <time>2020-12-05T18:52:44Z</time>
      </trkpt>
      <trkpt lat="43.48327" lon="5.45692">
        <ele>281</ele>
        <time>2020-12-05T18:52:48Z</time>
      </trkpt>
      <trkpt lat="43.48314" lon="5.45708">
        <ele>282</ele>
        <time>2020-12-05T18:52:52Z</time>
      </trkpt>
      <trkpt lat="43.4831" lon="5.45724">
        <ele>283</ele>
        <time>2020-12-05T18:52:55Z</time>
      </trkpt>
      <trkpt lat="43.48315" lon="5.4573">
        <ele>283</ele>
        <time>2020-12-05T18:52:57Z</time>
      </trkpt>
      <trkpt lat="43.48325" lon="5.45734">
        <ele>283</ele>
        <time>2020-12-05T18:52:59Z</time>
      </trkpt>
      <trkpt lat="43.48358" lon="5.45766">
        <ele>283</ele>
        <time>2020-12-05T18:53:09Z</time>
      </trkpt>
      <trkpt lat="43.48372" lon="5.45776">
        <ele>283</ele>
        <time>2020-12-05T18:53:12Z</time>
      </trkpt>
      <trkpt lat="43.48385" lon="5.45781">
        <ele>282</ele>
        <time>2020-12-05T18:53:15Z</time>
      </trkpt>
      <trkpt lat="43.48392" lon="5.45795">
        <ele>283</ele>
        <time>2020-12-05T18:53:18Z</time>
      </trkpt>
      <trkpt lat="43.48394" lon="5.45813">
        <ele>284</ele>
        <time>2020-12-05T18:53:21Z</time>
      </trkpt>
      <trkpt lat="43.48401" lon="5.45839">
        <ele>286</ele>
        <time>2020-12-05T18:53:26Z</time>
      </trkpt>
      <trkpt lat="43.4841" lon="5.45857">
        <ele>287</ele>
        <time>2020-12-05T18:53:30Z</time>
      </trkpt>
      <trkpt lat="43.48419" lon="5.45865">
        <ele>288</ele>
        <time>2020-12-05T18:53:32Z</time>
      </trkpt>
      <trkpt lat="43.4847" lon="5.45883">
        <ele>286</ele>
        <time>2020-12-05T18:53:45Z</time>
      </trkpt>
      <trkpt lat="43.48494" lon="5.45886">
        <ele>285</ele>
        <time>2020-12-05T18:53:50Z</time>
      </trkpt>
      <trkpt lat="43.48555" lon="5.45908">
        <ele>283</ele>
        <time>2020-12-05T18:54:05Z</time>
      </trkpt>
      <trkpt lat="43.48588" lon="5.45912">
        <ele>281</ele>
        <time>2020-12-05T18:54:13Z</time>
      </trkpt>
      <trkpt lat="43.48602" lon="5.45922">
        <ele>281</ele>
        <time>2020-12-05T18:54:16Z</time>
      </trkpt>
      <trkpt lat="43.48652" lon="5.45929">
        <ele>277</ele>
        <time>2020-12-05T18:54:28Z</time>
      </trkpt>
      <trkpt lat="43.48821" lon="5.45928">
        <ele>270</ele>
        <time>2020-12-05T18:55:08Z</time>
      </trkpt>
      <trkpt lat="43.48841" lon="5.45922">
        <ele>270</ele>
        <time>2020-12-05T18:55:12Z</time>
      </trkpt>
      <trkpt lat="43.48849" lon="5.45911">
        <ele>269</ele>
        <time>2020-12-05T18:55:15Z</time>
      </trkpt>
      <trkpt lat="43.4885" lon="5.45906">
        <ele>268</ele>
        <time>2020-12-05T18:55:16Z</time>
      </trkpt>
      <trkpt lat="43.48848" lon="5.45905">
        <ele>268</ele>
        <time>2020-12-05T18:55:16Z</time>
      </trkpt>
      <trkpt lat="43.48854" lon="5.45909">
        <ele>268</ele>
        <time>2020-12-05T18:55:18Z</time>
      </trkpt>
      <trkpt lat="43.4885" lon="5.45909">
        <ele>269</ele>
        <time>2020-12-05T18:55:19Z</time>
      </trkpt>
      <trkpt lat="43.48854" lon="5.4591">
        <ele>268</ele>
        <time>2020-12-05T18:55:20Z</time>
      </trkpt>
      <trkpt lat="43.48851" lon="5.4591">
        <ele>269</ele>
        <time>2020-12-05T18:55:20Z</time>
      </trkpt>
      <trkpt lat="43.48853" lon="5.45913">
        <ele>269</ele>
        <time>2020-12-05T18:55:21Z</time>
      </trkpt>
      <trkpt lat="43.48851" lon="5.45912">
        <ele>269</ele>
        <time>2020-12-05T18:55:22Z</time>
      </trkpt>
      <trkpt lat="43.48867" lon="5.45912">
        <ele>268</ele>
        <time>2020-12-05T18:55:25Z</time>
      </trkpt>
      <trkpt lat="43.48876" lon="5.45918">
        <ele>268</ele>
        <time>2020-12-05T18:55:28Z</time>
      </trkpt>
      <trkpt lat="43.4889" lon="5.45935">
        <ele>269</ele>
        <time>2020-12-05T18:55:32Z</time>
      </trkpt>
      <trkpt lat="43.48895" lon="5.4595">
        <ele>270</ele>
        <time>2020-12-05T18:55:35Z</time>
      </trkpt>
      <trkpt lat="43.48902" lon="5.45962">
        <ele>271</ele>
        <time>2020-12-05T18:55:38Z</time>
      </trkpt>
      <trkpt lat="43.48925" lon="5.45971">
        <ele>271</ele>
        <time>2020-12-05T18:55:43Z</time>
      </trkpt>
      <trkpt lat="43.48935" lon="5.45971">
        <ele>271</ele>
        <time>2020-12-05T18:55:45Z</time>
      </trkpt>
      <trkpt lat="43.48947" lon="5.45976">
        <ele>271</ele>
        <time>2020-12-05T18:55:48Z</time>
      </trkpt>
      <trkpt lat="43.48961" lon="5.45977">
        <ele>271</ele>
        <time>2020-12-05T18:55:52Z</time>
      </trkpt>
      <trkpt lat="43.48992" lon="5.45988">
        <ele>271</ele>
        <time>2020-12-05T18:55:59Z</time>
      </trkpt>
      <trkpt lat="43.49011" lon="5.46007">
        <ele>271</ele>
        <time>2020-12-05T18:56:05Z</time>
      </trkpt>
      <trkpt lat="43.49027" lon="5.46014">
        <ele>270</ele>
        <time>2020-12-05T18:56:09Z</time>
      </trkpt>
      <trkpt lat="43.49051" lon="5.46031">
        <ele>270</ele>
        <time>2020-12-05T18:56:15Z</time>
      </trkpt>
      <trkpt lat="43.49063" lon="5.46051">
        <ele>270</ele>
        <time>2020-12-05T18:56:19Z</time>
      </trkpt>
      <trkpt lat="43.49072" lon="5.46059">
        <ele>270</ele>
        <time>2020-12-05T18:56:22Z</time>
      </trkpt>
      <trkpt lat="43.49084" lon="5.46057">
        <ele>269</ele>
        <time>2020-12-05T18:56:25Z</time>
      </trkpt>
      <trkpt lat="43.49088" lon="5.46053">
        <ele>269</ele>
        <time>2020-12-05T18:56:26Z</time>
      </trkpt>
      <trkpt lat="43.49101" lon="5.46048">
        <ele>267</ele>
        <time>2020-12-05T18:56:29Z</time>
      </trkpt>
      <trkpt lat="43.49117" lon="5.4605">
        <ele>266</ele>
        <time>2020-12-05T18:56:33Z</time>
      </trkpt>
      <trkpt lat="43.49152" lon="5.46125">
        <ele>270</ele>
        <time>2020-12-05T18:56:48Z</time>
      </trkpt>
      <trkpt lat="43.49153" lon="5.46156">
        <ele>273</ele>
        <time>2020-12-05T18:56:53Z</time>
      </trkpt>
      <trkpt lat="43.49166" lon="5.46198">
        <ele>275</ele>
        <time>2020-12-05T18:57:01Z</time>
      </trkpt>
      <trkpt lat="43.49164" lon="5.46217">
        <ele>276</ele>
        <time>2020-12-05T18:57:04Z</time>
      </trkpt>
      <trkpt lat="43.49173" lon="5.46274">
        <ele>277</ele>
        <time>2020-12-05T18:57:14Z</time>
      </trkpt>
      <trkpt lat="43.49175" lon="5.46318">
        <ele>278</ele>
        <time>2020-12-05T18:57:21Z</time>
      </trkpt>
      <trkpt lat="43.49189" lon="5.46398">
        <ele>283</ele>
        <time>2020-12-05T18:57:35Z</time>
      </trkpt>
      <trkpt lat="43.4919" lon="5.46425">
        <ele>285</ele>
        <time>2020-12-05T18:57:40Z</time>
      </trkpt>
      <trkpt lat="43.49202" lon="5.46431">
        <ele>285</ele>
        <time>2020-12-05T18:57:43Z</time>
      </trkpt>
      <trkpt lat="43.4926" lon="5.46409">
        <ele>287</ele>
        <time>2020-12-05T18:57:57Z</time>
      </trkpt>
      <trkpt lat="43.49271" lon="5.46402">
        <ele>288</ele>
        <time>2020-12-05T18:58:00Z</time>
      </trkpt>
      <trkpt lat="43.49293" lon="5.46376">
        <ele>291</ele>
        <time>2020-12-05T18:58:06Z</time>
      </trkpt>
      <trkpt lat="43.49307" lon="5.46322">
        <ele>293</ele>
        <time>2020-12-05T18:58:16Z</time>
      </trkpt>
      <trkpt lat="43.49329" lon="5.46277">
        <ele>295</ele>
        <time>2020-12-05T18:58:25Z</time>
      </trkpt>
      <trkpt lat="43.49343" lon="5.46257">
        <ele>294</ele>
        <time>2020-12-05T18:58:30Z</time>
      </trkpt>
      <trkpt lat="43.49348" lon="5.46256">
        <ele>294</ele>
        <time>2020-12-05T18:58:31Z</time>
      </trkpt>
      <trkpt lat="43.49355" lon="5.46248">
        <ele>293</ele>
        <time>2020-12-05T18:58:33Z</time>
      </trkpt>
      <trkpt lat="43.49425" lon="5.4611">
        <ele>300</ele>
        <time>2020-12-05T18:59:02Z</time>
      </trkpt>
      <trkpt lat="43.49486" lon="5.46009">
        <ele>301</ele>
        <time>2020-12-05T18:59:24Z</time>
      </trkpt>
      <trkpt lat="43.49504" lon="5.45991">
        <ele>301</ele>
        <time>2020-12-05T18:59:29Z</time>
      </trkpt>
      <trkpt lat="43.4955" lon="5.45955">
        <ele>297</ele>
        <time>2020-12-05T18:59:42Z</time>
      </trkpt>
      <trkpt lat="43.49591" lon="5.45903">
        <ele>298</ele>
        <time>2020-12-05T18:59:55Z</time>
      </trkpt>
      <trkpt lat="43.49624" lon="5.45885">
        <ele>296</ele>
        <time>2020-12-05T19:00:03Z</time>
      </trkpt>
      <trkpt lat="43.49635" lon="5.45884">
        <ele>296</ele>
        <time>2020-12-05T19:00:06Z</time>
      </trkpt>
      <trkpt lat="43.49641" lon="5.45886">
        <ele>295</ele>
        <time>2020-12-05T19:00:07Z</time>
      </trkpt>
      <trkpt lat="43.4964" lon="5.45883">
        <ele>295</ele>
        <time>2020-12-05T19:00:08Z</time>
      </trkpt>
      <trkpt lat="43.49661" lon="5.45895">
        <ele>294</ele>
        <time>2020-12-05T19:00:13Z</time>
      </trkpt>
      <trkpt lat="43.49671" lon="5.4592">
        <ele>292</ele>
        <time>2020-12-05T19:00:18Z</time>
      </trkpt>
      <trkpt lat="43.49673" lon="5.45938">
        <ele>290</ele>
        <time>2020-12-05T19:00:21Z</time>
      </trkpt>
      <trkpt lat="43.49678" lon="5.45954">
        <ele>287</ele>
        <time>2020-12-05T19:00:24Z</time>
      </trkpt>
      <trkpt lat="43.49696" lon="5.45984">
        <ele>282</ele>
        <time>2020-12-05T19:00:30Z</time>
      </trkpt>
      <trkpt lat="43.49706" lon="5.45986">
        <ele>282</ele>
        <time>2020-12-05T19:00:33Z</time>
      </trkpt>
      <trkpt lat="43.49714" lon="5.45997">
        <ele>280</ele>
        <time>2020-12-05T19:00:35Z</time>
      </trkpt>
      <trkpt lat="43.4973" lon="5.46011">
        <ele>277</ele>
        <time>2020-12-05T19:00:40Z</time>
      </trkpt>
      <trkpt lat="43.49737" lon="5.46013">
        <ele>276</ele>
        <time>2020-12-05T19:00:41Z</time>
      </trkpt>
      <trkpt lat="43.49743" lon="5.46018">
        <ele>275</ele>
        <time>2020-12-05T19:00:43Z</time>
      </trkpt>
      <trkpt lat="43.4975" lon="5.46019">
        <ele>275</ele>
        <time>2020-12-05T19:00:45Z</time>
      </trkpt>
      <trkpt lat="43.49759" lon="5.46028">
        <ele>272</ele>
        <time>2020-12-05T19:00:47Z</time>
      </trkpt>
      <trkpt lat="43.4976" lon="5.46036">
        <ele>271</ele>
        <time>2020-12-05T19:00:49Z</time>
      </trkpt>
      <trkpt lat="43.49773" lon="5.46034">
        <ele>270</ele>
        <time>2020-12-05T19:00:52Z</time>
      </trkpt>
      <trkpt lat="43.4978" lon="5.46038">
        <ele>269</ele>
        <time>2020-12-05T19:00:54Z</time>
      </trkpt>
      <trkpt lat="43.49788" lon="5.46048">
        <ele>266</ele>
        <time>2020-12-05T19:00:56Z</time>
      </trkpt>
      <trkpt lat="43.498" lon="5.46076">
        <ele>259</ele>
        <time>2020-12-05T19:01:02Z</time>
      </trkpt>
      <trkpt lat="43.49825" lon="5.46106">
        <ele>254</ele>
        <time>2020-12-05T19:01:09Z</time>
      </trkpt>
      <trkpt lat="43.49846" lon="5.46103">
        <ele>255</ele>
        <time>2020-12-05T19:01:14Z</time>
      </trkpt>
      <trkpt lat="43.49849" lon="5.46105">
        <ele>255</ele>
        <time>2020-12-05T19:01:15Z</time>
      </trkpt>
      <trkpt lat="43.49862" lon="5.46137">
        <ele>253</ele>
        <time>2020-12-05T19:01:21Z</time>
      </trkpt>
      <trkpt lat="43.49867" lon="5.46162">
        <ele>250</ele>
        <time>2020-12-05T19:01:26Z</time>
      </trkpt>
      <trkpt lat="43.49872" lon="5.46166">
        <ele>250</ele>
        <time>2020-12-05T19:01:27Z</time>
      </trkpt>
      <trkpt lat="43.4988" lon="5.46187">
        <ele>247</ele>
        <time>2020-12-05T19:01:31Z</time>
      </trkpt>
      <trkpt lat="43.49886" lon="5.46194">
        <ele>246</ele>
        <time>2020-12-05T19:01:33Z</time>
      </trkpt>
      <trkpt lat="43.49906" lon="5.46203">
        <ele>242</ele>
        <time>2020-12-05T19:01:38Z</time>
      </trkpt>
      <trkpt lat="43.49916" lon="5.46213">
        <ele>239</ele>
        <time>2020-12-05T19:01:41Z</time>
      </trkpt>
      <trkpt lat="43.49917" lon="5.46248">
        <ele>230</ele>
        <time>2020-12-05T19:01:47Z</time>
      </trkpt>
      <trkpt lat="43.49926" lon="5.4626">
        <ele>229</ele>
        <time>2020-12-05T19:01:49Z</time>
      </trkpt>
      <trkpt lat="43.49929" lon="5.46276">
        <ele>227</ele>
        <time>2020-12-05T19:01:52Z</time>
      </trkpt>
      <trkpt lat="43.49944" lon="5.46312">
        <ele>220</ele>
        <time>2020-12-05T19:01:59Z</time>
      </trkpt>
      <trkpt lat="43.49949" lon="5.46332">
        <ele>216</ele>
        <time>2020-12-05T19:02:03Z</time>
      </trkpt>
      <trkpt lat="43.49959" lon="5.46343">
        <ele>214</ele>
        <time>2020-12-05T19:02:06Z</time>
      </trkpt>
      <trkpt lat="43.4996" lon="5.46353">
        <ele>214</ele>
        <time>2020-12-05T19:02:08Z</time>
      </trkpt>
      <trkpt lat="43.49967" lon="5.46366">
        <ele>213</ele>
        <time>2020-12-05T19:02:10Z</time>
      </trkpt>
      <trkpt lat="43.49996" lon="5.46375">
        <ele>211</ele>
        <time>2020-12-05T19:02:17Z</time>
      </trkpt>
      <trkpt lat="43.50006" lon="5.46372">
        <ele>210</ele>
        <time>2020-12-05T19:02:20Z</time>
      </trkpt>
      <trkpt lat="43.50031" lon="5.46381">
        <ele>208</ele>
        <time>2020-12-05T19:02:26Z</time>
      </trkpt>
      <trkpt lat="43.5005" lon="5.46378">
        <ele>206</ele>
        <time>2020-12-05T19:02:30Z</time>
      </trkpt>
      <trkpt lat="43.50067" lon="5.46381">
        <ele>204</ele>
        <time>2020-12-05T19:02:34Z</time>
      </trkpt>
      <trkpt lat="43.50126" lon="5.46346">
        <ele>199</ele>
        <time>2020-12-05T19:02:49Z</time>
      </trkpt>
      <trkpt lat="43.50191" lon="5.46337">
        <ele>197</ele>
        <time>2020-12-05T19:03:04Z</time>
      </trkpt>
      <trkpt lat="43.5024" lon="5.46358">
        <ele>195</ele>
        <time>2020-12-05T19:03:16Z</time>
      </trkpt>
      <trkpt lat="43.50275" lon="5.46376">
        <ele>194</ele>
        <time>2020-12-05T19:03:25Z</time>
      </trkpt>
      <trkpt lat="43.50328" lon="5.46396">
        <ele>193</ele>
        <time>2020-12-05T19:03:38Z</time>
      </trkpt>
      <trkpt lat="43.50379" lon="5.46412">
        <ele>190</ele>
        <time>2020-12-05T19:03:50Z</time>
      </trkpt>
      <trkpt lat="43.50411" lon="5.46427">
        <ele>188</ele>
        <time>2020-12-05T19:03:58Z</time>
      </trkpt>
      <trkpt lat="43.50416" lon="5.46423">
        <ele>189</ele>
        <time>2020-12-05T19:03:59Z</time>
      </trkpt>
      <trkpt lat="43.50424" lon="5.4641">
        <ele>190</ele>
        <time>2020-12-05T19:04:02Z</time>
      </trkpt>
      <trkpt lat="43.50445" lon="5.46389">
        <ele>190</ele>
        <time>2020-12-05T19:04:08Z</time>
      </trkpt>
      <trkpt lat="43.50473" lon="5.46332">
        <ele>191</ele>
        <time>2020-12-05T19:04:20Z</time>
      </trkpt>
      <trkpt lat="43.50485" lon="5.46291">
        <ele>193</ele>
        <time>2020-12-05T19:04:28Z</time>
      </trkpt>
      <trkpt lat="43.50489" lon="5.46287">
        <ele>193</ele>
        <time>2020-12-05T19:04:29Z</time>
      </trkpt>
      <trkpt lat="43.50505" lon="5.4628">
        <ele>189</ele>
        <time>2020-12-05T19:04:33Z</time>
      </trkpt>
      <trkpt lat="43.50537" lon="5.46251">
        <ele>183</ele>
        <time>2020-12-05T19:04:42Z</time>
      </trkpt>
      <trkpt lat="43.50565" lon="5.46205">
        <ele>182</ele>
        <time>2020-12-05T19:04:52Z</time>
      </trkpt>
      <trkpt lat="43.50568" lon="5.46197">
        <ele>182</ele>
        <time>2020-12-05T19:04:53Z</time>
      </trkpt>
      <trkpt lat="43.50566" lon="5.46178">
        <ele>186</ele>
        <time>2020-12-05T19:04:56Z</time>
      </trkpt>
      <trkpt lat="43.50569" lon="5.46174">
        <ele>186</ele>
        <time>2020-12-05T19:04:57Z</time>
      </trkpt>
      <trkpt lat="43.50571" lon="5.46172">
        <ele>185</ele>
        <time>2020-12-05T19:04:58Z</time>
      </trkpt>
      <trkpt lat="43.50592" lon="5.46169">
        <ele>180</ele>
        <time>2020-12-05T19:05:03Z</time>
      </trkpt>
      <trkpt lat="43.50609" lon="5.46169">
        <ele>176</ele>
        <time>2020-12-05T19:05:07Z</time>
      </trkpt>
      <trkpt lat="43.50631" lon="5.46156">
        <ele>172</ele>
        <time>2020-12-05T19:05:13Z</time>
      </trkpt>
      <trkpt lat="43.50643" lon="5.46114">
        <ele>175</ele>
        <time>2020-12-05T19:05:20Z</time>
      </trkpt>
      <trkpt lat="43.50644" lon="5.461">
        <ele>176</ele>
        <time>2020-12-05T19:05:23Z</time>
      </trkpt>
      <trkpt lat="43.50647" lon="5.46094">
        <ele>176</ele>
        <time>2020-12-05T19:05:24Z</time>
      </trkpt>
      <trkpt lat="43.50655" lon="5.46088">
        <ele>175</ele>
        <time>2020-12-05T19:05:26Z</time>
      </trkpt>
      <trkpt lat="43.5068" lon="5.46038">
        <ele>171</ele>
        <time>2020-12-05T19:05:36Z</time>
      </trkpt>
      <trkpt lat="43.50699" lon="5.4601">
        <ele>169</ele>
        <time>2020-12-05T19:05:43Z</time>
      </trkpt>
      <trkpt lat="43.50717" lon="5.46019">
        <ele>165</ele>
        <time>2020-12-05T19:05:47Z</time>
      </trkpt>
      <trkpt lat="43.50732" lon="5.46012">
        <ele>163</ele>
        <time>2020-12-05T19:05:51Z</time>
      </trkpt>
      <trkpt lat="43.50744" lon="5.46014">
        <ele>160</ele>
        <time>2020-12-05T19:05:54Z</time>
      </trkpt>
      <trkpt lat="43.50762" lon="5.46011">
        <ele>157</ele>
        <time>2020-12-05T19:05:58Z</time>
      </trkpt>
      <trkpt lat="43.50774" lon="5.45989">
        <ele>157</ele>
        <time>2020-12-05T19:06:03Z</time>
      </trkpt>
      <trkpt lat="43.5079" lon="5.45978">
        <ele>155</ele>
        <time>2020-12-05T19:06:07Z</time>
      </trkpt>
      <trkpt lat="43.50804" lon="5.45976">
        <ele>152</ele>
        <time>2020-12-05T19:06:10Z</time>
      </trkpt>
      <trkpt lat="43.50846" lon="5.46038">
        <ele>145</ele>
        <time>2020-12-05T19:06:24Z</time>
      </trkpt>
      <trkpt lat="43.5086" lon="5.46054">
        <ele>144</ele>
        <time>2020-12-05T19:06:29Z</time>
      </trkpt>
      <trkpt lat="43.50875" lon="5.46065">
        <ele>143</ele>
        <time>2020-12-05T19:06:33Z</time>
      </trkpt>
      <trkpt lat="43.50882" lon="5.46065">
        <ele>143</ele>
        <time>2020-12-05T19:06:34Z</time>
      </trkpt>
      <trkpt lat="43.50888" lon="5.46062">
        <ele>143</ele>
        <time>2020-12-05T19:06:36Z</time>
      </trkpt>
      <trkpt lat="43.50912" lon="5.4604">
        <ele>142</ele>
        <time>2020-12-05T19:06:42Z</time>
      </trkpt>
      <trkpt lat="43.50944" lon="5.45991">
        <ele>142</ele>
        <time>2020-12-05T19:06:54Z</time>
      </trkpt>
      <trkpt lat="43.50957" lon="5.45966">
        <ele>142</ele>
        <time>2020-12-05T19:06:59Z</time>
      </trkpt>
      <trkpt lat="43.5098" lon="5.45909">
        <ele>140</ele>
        <time>2020-12-05T19:07:10Z</time>
      </trkpt>
      <trkpt lat="43.50994" lon="5.45884">
        <ele>140</ele>
        <time>2020-12-05T19:07:15Z</time>
      </trkpt>
      <trkpt lat="43.51014" lon="5.45856">
        <ele>141</ele>
        <time>2020-12-05T19:07:22Z</time>
      </trkpt>
      <trkpt lat="43.51023" lon="5.45838">
        <ele>141</ele>
        <time>2020-12-05T19:07:26Z</time>
      </trkpt>
      <trkpt lat="43.51034" lon="5.45804">
        <ele>142</ele>
        <time>2020-12-05T19:07:32Z</time>
      </trkpt>
      <trkpt lat="43.51042" lon="5.45766">
        <ele>142</ele>
        <time>2020-12-05T19:07:39Z</time>
      </trkpt>
      <trkpt lat="43.51041" lon="5.45762">
        <ele>142</ele>
        <time>2020-12-05T19:07:39Z</time>
      </trkpt>
      <trkpt lat="43.51026" lon="5.45744">
        <ele>142</ele>
        <time>2020-12-05T19:07:44Z</time>
      </trkpt>
      <trkpt lat="43.5103" lon="5.45727">
        <ele>142</ele>
        <time>2020-12-05T19:07:47Z</time>
      </trkpt>
      <trkpt lat="43.5103" lon="5.45701">
        <ele>142</ele>
        <time>2020-12-05T19:07:51Z</time>
      </trkpt>
      <trkpt lat="43.51024" lon="5.4565">
        <ele>142</ele>
        <time>2020-12-05T19:08:00Z</time>
      </trkpt>
      <trkpt lat="43.51013" lon="5.45625">
        <ele>143</ele>
        <time>2020-12-05T19:08:05Z</time>
      </trkpt>
      <trkpt lat="43.51" lon="5.45603">
        <ele>143</ele>
        <time>2020-12-05T19:08:10Z</time>
      </trkpt>
      <trkpt lat="43.50992" lon="5.45581">
        <ele>143</ele>
        <time>2020-12-05T19:08:14Z</time>
      </trkpt>
      <trkpt lat="43.50989" lon="5.45561">
        <ele>144</ele>
        <time>2020-12-05T19:08:18Z</time>
      </trkpt>
      <trkpt lat="43.50986" lon="5.45491">
        <ele>143</ele>
        <time>2020-12-05T19:08:29Z</time>
      </trkpt>
      <trkpt lat="43.50982" lon="5.45478">
        <ele>143</ele>
        <time>2020-12-05T19:08:32Z</time>
      </trkpt>
      <trkpt lat="43.50981" lon="5.45432">
        <ele>142</ele>
        <time>2020-12-05T19:08:40Z</time>
      </trkpt>
      <trkpt lat="43.50985" lon="5.4541">
        <ele>141</ele>
        <time>2020-12-05T19:08:43Z</time>
      </trkpt>
      <trkpt lat="43.51008" lon="5.4536">
        <ele>140</ele>
        <time>2020-12-05T19:08:53Z</time>
      </trkpt>
      <trkpt lat="43.51021" lon="5.45345">
        <ele>140</ele>
        <time>2020-12-05T19:08:57Z</time>
      </trkpt>
      <trkpt lat="43.51077" lon="5.45292">
        <ele>139</ele>
        <time>2020-12-05T19:09:13Z</time>
      </trkpt>
      <trkpt lat="43.51107" lon="5.4525">
        <ele>140</ele>
        <time>2020-12-05T19:09:23Z</time>
      </trkpt>
      <trkpt lat="43.51113" lon="5.45231">
        <ele>140</ele>
        <time>2020-12-05T19:09:27Z</time>
      </trkpt>
      <trkpt lat="43.51125" lon="5.45207">
        <ele>139</ele>
        <time>2020-12-05T19:09:32Z</time>
      </trkpt>
      <trkpt lat="43.51133" lon="5.45207">
        <ele>140</ele>
        <time>2020-12-05T19:09:34Z</time>
      </trkpt>
      <trkpt lat="43.51152" lon="5.4522">
        <ele>140</ele>
        <time>2020-12-05T19:09:39Z</time>
      </trkpt>
      <trkpt lat="43.51156" lon="5.4522">
        <ele>140</ele>
        <time>2020-12-05T19:09:39Z</time>
      </trkpt>
      <trkpt lat="43.51157" lon="5.45217">
        <ele>140</ele>
        <time>2020-12-05T19:09:40Z</time>
      </trkpt>
      <trkpt lat="43.51144" lon="5.45036">
        <ele>138</ele>
        <time>2020-12-05T19:10:11Z</time>
      </trkpt>
      <trkpt lat="43.5114" lon="5.45007">
        <ele>138</ele>
        <time>2020-12-05T19:10:16Z</time>
      </trkpt>
      <trkpt lat="43.51132" lon="5.4498">
        <ele>137</ele>
        <time>2020-12-05T19:10:21Z</time>
      </trkpt>
      <trkpt lat="43.51112" lon="5.44945">
        <ele>137</ele>
        <time>2020-12-05T19:10:28Z</time>
      </trkpt>
      <trkpt lat="43.51065" lon="5.44898">
        <ele>136</ele>
        <time>2020-12-05T19:10:42Z</time>
      </trkpt>
      <trkpt lat="43.51037" lon="5.44874">
        <ele>137</ele>
        <time>2020-12-05T19:10:50Z</time>
      </trkpt>
      <trkpt lat="43.51007" lon="5.44832">
        <ele>138</ele>
        <time>2020-12-05T19:11:00Z</time>
      </trkpt>
      <trkpt lat="43.50999" lon="5.44794">
        <ele>139</ele>
        <time>2020-12-05T19:11:06Z</time>
      </trkpt>
      <trkpt lat="43.51005" lon="5.44757">
        <ele>139</ele>
        <time>2020-12-05T19:11:13Z</time>
      </trkpt>
      <trkpt lat="43.51024" lon="5.44699">
        <ele>137</ele>
        <time>2020-12-05T19:11:23Z</time>
      </trkpt>
      <trkpt lat="43.51028" lon="5.44705">
        <ele>137</ele>
        <time>2020-12-05T19:11:25Z</time>
      </trkpt>
      <trkpt lat="43.51024" lon="5.44703">
        <ele>137</ele>
        <time>2020-12-05T19:11:26Z</time>
      </trkpt>
      <trkpt lat="43.51028" lon="5.44687">
        <ele>137</ele>
        <time>2020-12-05T19:11:29Z</time>
      </trkpt>
      <trkpt lat="43.51027" lon="5.44668">
        <ele>137</ele>
        <time>2020-12-05T19:11:32Z</time>
      </trkpt>
      <trkpt lat="43.51029" lon="5.44656">
        <ele>137</ele>
        <time>2020-12-05T19:11:34Z</time>
      </trkpt>
      <trkpt lat="43.51068" lon="5.44552">
        <ele>138</ele>
        <time>2020-12-05T19:11:54Z</time>
      </trkpt>
      <trkpt lat="43.51069" lon="5.44528">
        <ele>139</ele>
        <time>2020-12-05T19:11:58Z</time>
      </trkpt>
      <trkpt lat="43.51078" lon="5.4449">
        <ele>139</ele>
        <time>2020-12-05T19:12:05Z</time>
      </trkpt>
      <trkpt lat="43.51085" lon="5.44482">
        <ele>139</ele>
        <time>2020-12-05T19:12:07Z</time>
      </trkpt>
      <trkpt lat="43.51092" lon="5.44443">
        <ele>137</ele>
        <time>2020-12-05T19:12:14Z</time>
      </trkpt>
      <trkpt lat="43.51091" lon="5.44393">
        <ele>137</ele>
        <time>2020-12-05T19:12:22Z</time>
      </trkpt>
      <trkpt lat="43.51107" lon="5.44322">
        <ele>135</ele>
        <time>2020-12-05T19:12:35Z</time>
      </trkpt>
      <trkpt lat="43.51122" lon="5.44273">
        <ele>134</ele>
        <time>2020-12-05T19:12:44Z</time>
      </trkpt>
      <trkpt lat="43.51121" lon="5.44246">
        <ele>134</ele>
        <time>2020-12-05T19:12:48Z</time>
      </trkpt>
      <trkpt lat="43.51115" lon="5.44239">
        <ele>134</ele>
        <time>2020-12-05T19:12:50Z</time>
      </trkpt>
      <trkpt lat="43.51108" lon="5.44236">
        <ele>134</ele>
        <time>2020-12-05T19:12:52Z</time>
      </trkpt>
      <trkpt lat="43.51073" lon="5.44232">
        <ele>134</ele>
        <time>2020-12-05T19:13:00Z</time>
      </trkpt>
      <trkpt lat="43.51051" lon="5.44241">
        <ele>134</ele>
        <time>2020-12-05T19:13:05Z</time>
      </trkpt>
      <trkpt lat="43.51035" lon="5.44269">
        <ele>135</ele>
        <time>2020-12-05T19:13:11Z</time>
      </trkpt>
      <trkpt lat="43.51028" lon="5.44295">
        <ele>135</ele>
        <time>2020-12-05T19:13:16Z</time>
      </trkpt>
      <trkpt lat="43.51017" lon="5.44313">
        <ele>135</ele>
        <time>2020-12-05T19:13:20Z</time>
      </trkpt>
      <trkpt lat="43.51002" lon="5.4433">
        <ele>135</ele>
        <time>2020-12-05T19:13:25Z</time>
      </trkpt>
      <trkpt lat="43.50996" lon="5.44344">
        <ele>135</ele>
        <time>2020-12-05T19:13:27Z</time>
      </trkpt>
      <trkpt lat="43.50998" lon="5.44349">
        <ele>135</ele>
        <time>2020-12-05T19:13:28Z</time>
      </trkpt>
      <trkpt lat="43.51005" lon="5.44346">
        <ele>135</ele>
        <time>2020-12-05T19:13:30Z</time>
      </trkpt>
      <trkpt lat="43.51005" lon="5.44341">
        <ele>135</ele>
        <time>2020-12-05T19:13:31Z</time>
      </trkpt>
      <trkpt lat="43.51007" lon="5.44342">
        <ele>135</ele>
        <time>2020-12-05T19:13:31Z</time>
      </trkpt>
      <trkpt lat="43.51009" lon="5.44346">
        <ele>135</ele>
        <time>2020-12-05T19:13:32Z</time>
      </trkpt>
      <trkpt lat="43.51007" lon="5.44354">
        <ele>135</ele>
        <time>2020-12-05T19:13:34Z</time>
      </trkpt>
    </trkseg>
  </trk>
</gpx>